Jump to: Map   Top of Page   Track Data   Planned Ports of Call   Notes   Bottom of Page
  Track data: (most recent on top)
  Each circular icon on the map marks a measurement point in this list.
      Date-Time(UTC)       Hawaiʻi-Standard-Time        Nautical-Time         Latitude  Longitude  Course Speed Vessel
  YYYY-MM-DDThh:mm:ss    YYYY-MM-DDThh:mm:ss-10:00 YYYY-MM-DDThh:mm:ss∓HH:MM   degrees    degrees degrees knots
  2023-12-07T20:19:54UTC 2023-12-07T10:19:54-10:00 2023-12-07T09:19:54-11:00  21.31299 -157.88886     180   0.0 Hōkūleʻa
  2023-12-07T19:20:30UTC 2023-12-07T09:20:30-10:00 2023-12-07T08:20:30-11:00  21.31302 -157.88886     271   0.5 Hōkūleʻa
  2023-12-07T18:19:59UTC 2023-12-07T08:19:59-10:00 2023-12-07T07:19:59-11:00  21.31289 -157.87926      90   0.0 Hōkūleʻa
  2023-12-07T04:30:51UTC 2023-12-06T18:30:51-10:00 2023-12-06T17:30:51-11:00  21.31292 -157.87920      78   0.0 Hōkūleʻa
  2023-12-07T03:19:09UTC 2023-12-06T17:19:09-10:00 2023-12-06T16:19:09-11:00  21.31289 -157.87937     306   0.8 Hōkūleʻa
  2023-12-07T02:20:14UTC 2023-12-06T16:20:14-10:00 2023-12-06T15:20:14-11:00  21.30530 -157.86813     352   4.9 Hōkūleʻa
  2023-12-07T01:20:11UTC 2023-12-06T15:20:11-10:00 2023-12-06T14:20:11-11:00  21.22392 -157.85587     286  10.2 Hōkūleʻa
  2023-12-07T00:29:03UTC 2023-12-06T14:29:03-10:00 2023-12-06T13:29:03-11:00  21.18448 -157.70700     243  12.3 Hōkūleʻa
  2023-12-06T23:18:56UTC 2023-12-06T13:18:56-10:00 2023-12-06T13:18:56-10:00  21.29512 -157.48011     243  18.9 Hōkūleʻa
  2023-12-06T22:29:57UTC 2023-12-06T12:29:57-10:00 2023-12-06T12:29:57-10:00  21.41232 -157.23515     243  17.5 Hōkūleʻa
  2023-12-06T21:20:06UTC 2023-12-06T11:20:06-10:00 2023-12-06T11:20:06-10:00  21.56565 -156.90936     244  21.9 Hōkūleʻa
  2023-12-06T20:18:55UTC 2023-12-06T10:18:55-10:00 2023-12-06T10:18:55-10:00  21.72904 -156.55108     243  22.7 Hōkūleʻa
  2023-12-06T19:20:13UTC 2023-12-06T09:20:13-10:00 2023-12-06T09:20:13-10:00  21.89851 -156.19655     244  26.9 Hōkūleʻa
  2023-12-06T18:30:46UTC 2023-12-06T08:30:46-10:00 2023-12-06T08:30:46-10:00  22.06207 -155.83911     243  18.5 Hōkūleʻa
  2023-12-06T17:20:03UTC 2023-12-06T07:20:03-10:00 2023-12-06T07:20:03-10:00  22.22501 -155.48937     244  22.3 Hōkūleʻa
  2023-12-06T16:21:11UTC 2023-12-06T06:21:11-10:00 2023-12-06T06:21:11-10:00  22.38545 -155.13596     244  22.0 Hōkūleʻa
  2023-12-06T15:21:11UTC 2023-12-06T05:21:11-10:00 2023-12-06T05:21:11-10:00  22.54730 -154.77990     244  21.1 Hōkūleʻa
  2023-12-06T14:18:56UTC 2023-12-06T04:18:56-10:00 2023-12-06T04:18:56-10:00  22.70712 -154.42460     244  22.5 Hōkūleʻa
  2023-12-06T13:20:11UTC 2023-12-06T03:20:11-10:00 2023-12-06T03:20:11-10:00  22.86623 -154.06667     244  35.5 Hōkūleʻa
  2023-12-06T12:43:28UTC 2023-12-06T02:43:28-10:00 2023-12-06T02:43:28-10:00  23.02798 -153.71499     245  15.5 Hōkūleʻa
  2023-12-06T11:20:20UTC 2023-12-06T01:20:20-10:00 2023-12-06T01:20:20-10:00  23.17825 -153.36337     245  21.8 Hōkūleʻa
  2023-12-06T10:20:01UTC 2023-12-06T00:20:01-10:00 2023-12-06T00:20:01-10:00  23.33620 -153.00468     245  21.8 Hōkūleʻa
  2023-12-06T09:20:09UTC 2023-12-05T23:20:09-10:00 2023-12-05T23:20:09-10:00  23.49231 -152.64954     245  26.5 Hōkūleʻa
  2023-12-06T08:30:45UTC 2023-12-05T22:30:45-10:00 2023-12-05T22:30:45-10:00  23.64476 -152.28946     245  23.3 Hōkūleʻa
  2023-12-06T07:35:46UTC 2023-12-05T21:35:46-10:00 2023-12-05T21:35:46-10:00  23.79349 -151.93744     245  16.8 Hōkūleʻa
  2023-12-06T06:20:22UTC 2023-12-05T20:20:22-10:00 2023-12-05T20:20:22-10:00  23.94139 -151.58787     246  21.2 Hōkūleʻa
  2023-12-06T05:20:08UTC 2023-12-05T19:20:08-10:00 2023-12-05T19:20:08-10:00  24.08918 -151.23485     245  20.9 Hōkūleʻa
  2023-12-06T04:18:54UTC 2023-12-05T18:18:54-10:00 2023-12-05T18:18:54-10:00  24.23820 -150.88078     246  21.8 Hōkūleʻa
  2023-12-06T03:20:14UTC 2023-12-05T17:20:14-10:00 2023-12-05T17:20:14-10:00  24.38469 -150.52540     246  26.9 Hōkūleʻa
  2023-12-06T02:32:29UTC 2023-12-05T16:32:29-10:00 2023-12-05T16:32:29-10:00  24.53327 -150.16948     246  17.5 Hōkūleʻa
  2023-12-06T01:19:18UTC 2023-12-05T15:19:18-10:00 2023-12-05T15:19:18-10:00  24.67912 -149.81202     247  22.3 Hōkūleʻa
  2023-12-06T00:20:06UTC 2023-12-05T14:20:06-10:00 2023-12-05T14:20:06-10:00  24.82461 -149.44224     247  26.5 Hōkūleʻa
  2023-12-05T23:30:35UTC 2023-12-05T13:30:35-10:00 2023-12-05T13:30:35-10:00  24.97044 -149.07404     246  18.4 Hōkūleʻa
  2023-12-05T22:19:10UTC 2023-12-05T12:19:10-10:00 2023-12-05T12:19:10-10:00  25.11715 -148.70682     246  22.2 Hōkūleʻa
  2023-12-05T21:20:05UTC 2023-12-05T11:20:05-10:00 2023-12-05T11:20:05-10:00  25.26519 -148.34015     248  21.8 Hōkūleʻa
  2023-12-05T20:20:05UTC 2023-12-05T10:20:05-10:00 2023-12-05T10:20:05-10:00  25.40311 -147.96865     247  25.2 Hōkūleʻa
  2023-12-05T19:28:56UTC 2023-12-05T09:28:56-10:00 2023-12-05T09:28:56-10:00  25.54539 -147.60522     246  19.0 Hōkūleʻa
  2023-12-05T18:19:59UTC 2023-12-05T08:19:59-10:00 2023-12-05T08:19:59-10:00  25.69271 -147.23746     248  25.3 Hōkūleʻa
  2023-12-05T17:28:00UTC 2023-12-05T07:28:00-10:00 2023-12-05T07:28:00-10:00  25.82818 -146.86161     247  19.8 Hōkūleʻa
  2023-12-05T16:21:35UTC 2023-12-05T06:21:35-10:00 2023-12-05T06:21:35-10:00  25.97035 -146.48719     248  21.6 Hōkūleʻa
  2023-12-05T15:20:34UTC 2023-12-05T05:20:34-10:00 2023-12-05T05:20:34-10:00  26.10916 -146.10997     248  21.7 Hōkūleʻa
  2023-12-05T14:20:30UTC 2023-12-05T04:20:30-10:00 2023-12-05T04:20:30-10:00  26.24679 -145.73673     248  24.3 Hōkūleʻa
  2023-12-05T13:27:23UTC 2023-12-05T03:27:23-10:00 2023-12-05T03:27:23-10:00  26.38470 -145.36865     248  19.1 Hōkūleʻa
  2023-12-05T12:20:07UTC 2023-12-05T02:20:07-10:00 2023-12-05T02:20:07-10:00  26.51665 -144.99818     248  21.5 Hōkūleʻa
  2023-12-05T11:20:05UTC 2023-12-05T01:20:05-10:00 2023-12-05T01:20:05-10:00  26.65003 -144.62778     248  21.2 Hōkūleʻa
  2023-12-05T10:20:11UTC 2023-12-05T00:20:11-10:00 2023-12-05T00:20:11-10:00  26.78094 -144.26257     249  21.4 Hōkūleʻa
  2023-12-05T09:21:06UTC 2023-12-04T23:21:06-10:00 2023-12-04T23:21:06-10:00  26.91075 -143.89672     249  23.4 Hōkūleʻa
  2023-12-05T08:27:25UTC 2023-12-04T22:27:25-10:00 2023-12-04T22:27:25-10:00  27.03874 -143.53331     249  20.9 Hōkūleʻa
  2023-12-05T07:27:25UTC 2023-12-04T21:27:25-10:00 2023-12-04T21:27:25-10:00  27.16618 -143.16924     250  18.8 Hōkūleʻa
  2023-12-05T06:20:03UTC 2023-12-04T20:20:03-10:00 2023-12-04T20:20:03-10:00  27.28680 -142.79800     249  24.4 Hōkūleʻa
  2023-12-05T05:27:58UTC 2023-12-04T19:27:58-10:00 2023-12-04T20:27:58-09:00  27.41616 -142.42970     250  18.8 Hōkūleʻa
  2023-12-05T04:21:47UTC 2023-12-04T18:21:47-10:00 2023-12-04T19:21:47-09:00  27.53717 -142.06522     249  20.3 Hōkūleʻa
  2023-12-05T03:20:19UTC 2023-12-04T17:20:19-10:00 2023-12-04T18:20:19-09:00  27.66063 -141.69962     250  21.0 Hōkūleʻa
  2023-12-05T02:20:02UTC 2023-12-04T16:20:02-10:00 2023-12-04T17:20:02-09:00  27.78098 -141.32778     250  20.6 Hōkūleʻa
  2023-12-05T01:18:55UTC 2023-12-04T15:18:55-10:00 2023-12-04T16:18:55-09:00  27.90335 -140.95837     250  21.2 Hōkūleʻa
  2023-12-05T00:20:08UTC 2023-12-04T14:20:08-10:00 2023-12-04T15:20:08-09:00  28.02245 -140.59028     251  23.0 Hōkūleʻa
  2023-12-04T23:25:41UTC 2023-12-04T13:25:41-10:00 2023-12-04T14:25:41-09:00  28.13778 -140.21848     251  21.5 Hōkūleʻa
  2023-12-04T22:26:21UTC 2023-12-04T12:26:21-10:00 2023-12-04T13:26:21-09:00  28.25445 -139.83982     251  19.5 Hōkūleʻa
  2023-12-04T21:19:57UTC 2023-12-04T11:19:57-10:00 2023-12-04T12:19:57-09:00  28.37287 -139.45474     251  21.3 Hōkūleʻa
  2023-12-04T20:19:10UTC 2023-12-04T10:19:10-10:00 2023-12-04T11:19:10-09:00  28.49286 -139.06977     250  25.5 Hōkūleʻa
  2023-12-04T19:28:04UTC 2023-12-04T09:28:04-10:00 2023-12-04T10:28:04-09:00  28.61472 -138.68306     252  19.3 Hōkūleʻa
  2023-12-04T18:20:16UTC 2023-12-04T08:20:16-10:00 2023-12-04T09:20:16-09:00  28.72619 -138.28974     251  21.3 Hōkūleʻa
  2023-12-04T17:20:04UTC 2023-12-04T07:20:04-10:00 2023-12-04T08:20:04-09:00  28.84479 -137.90812     252  21.4 Hōkūleʻa
  2023-12-04T16:20:28UTC 2023-12-04T06:20:28-10:00 2023-12-04T07:20:28-09:00  28.95612 -137.52413     251  21.5 Hōkūleʻa
  2023-12-04T15:19:59UTC 2023-12-04T05:19:59-10:00 2023-12-04T06:19:59-09:00  29.07213 -137.13407     252  34.1 Hōkūleʻa
  2023-12-04T14:42:13UTC 2023-12-04T04:42:13-10:00 2023-12-04T05:42:13-09:00  29.18216 -136.74474     252  15.8 Hōkūleʻa
  2023-12-04T13:20:20UTC 2023-12-04T03:20:20-10:00 2023-12-04T04:20:20-09:00  29.29257 -136.35482     252  21.7 Hōkūleʻa
  2023-12-04T12:19:59UTC 2023-12-04T02:19:59-10:00 2023-12-04T03:19:59-09:00  29.40582 -135.95922     252  35.8 Hōkūleʻa
  2023-12-04T11:43:30UTC 2023-12-04T01:43:30-10:00 2023-12-04T02:43:30-09:00  29.51590 -135.56344     253  17.6 Hōkūleʻa
  2023-12-04T10:29:38UTC 2023-12-04T00:29:38-10:00 2023-12-04T01:29:38-09:00  29.62415 -135.16926     254  18.7 Hōkūleʻa
  2023-12-04T09:20:09UTC 2023-12-03T23:20:09-10:00 2023-12-04T00:20:09-09:00  29.72568 -134.77180     254  21.6 Hōkūleʻa
  2023-12-04T08:20:02UTC 2023-12-03T22:20:02-10:00 2023-12-03T23:20:02-09:00  29.82856 -134.37423     253  22.4 Hōkūleʻa
  2023-12-04T07:21:12UTC 2023-12-03T21:21:12-10:00 2023-12-03T22:21:12-09:00  29.93775 -133.97233     254  26.0 Hōkūleʻa
  2023-12-04T06:30:57UTC 2023-12-03T20:30:57-10:00 2023-12-03T21:30:57-09:00  30.04166 -133.57165     254  21.5 Hōkūleʻa
  2023-12-04T04:28:56UTC 2023-12-03T18:28:56-10:00 2023-12-03T19:28:56-09:00  30.24687 -132.76319     254  19.5 Hōkūleʻa
  2023-12-04T03:19:59UTC 2023-12-03T17:19:59-10:00 2023-12-03T18:19:59-09:00  30.34815 -132.34895     254  22.0 Hōkūleʻa
  2023-12-04T02:20:12UTC 2023-12-03T16:20:12-10:00 2023-12-03T17:20:12-09:00  30.44885 -131.94329     255  22.1 Hōkūleʻa
  2023-12-04T01:19:54UTC 2023-12-03T15:19:54-10:00 2023-12-03T16:19:54-09:00  30.54735 -131.52946     255  22.5 Hōkūleʻa
  2023-12-04T00:20:15UTC 2023-12-03T14:20:15-10:00 2023-12-03T15:20:15-09:00  30.64707 -131.11395     255  21.7 Hōkūleʻa
  2023-12-03T23:19:12UTC 2023-12-03T13:19:12-10:00 2023-12-03T14:19:12-09:00  30.74104 -130.70115     255  22.3 Hōkūleʻa
  2023-12-03T21:19:57UTC 2023-12-03T11:19:57-10:00 2023-12-03T12:19:57-09:00  30.92937 -129.87280     256  22.4 Hōkūleʻa
  2023-12-03T20:20:05UTC 2023-12-03T10:20:05-10:00 2023-12-03T11:20:05-09:00  31.02290 -129.45411     256  22.4 Hōkūleʻa
  2023-12-03T19:20:20UTC 2023-12-03T09:20:20-10:00 2023-12-03T10:20:20-09:00  31.11575 -129.03447     256  32.2 Hōkūleʻa
  2023-12-03T18:38:32UTC 2023-12-03T08:38:32-10:00 2023-12-03T09:38:32-09:00  31.20672 -128.61211     257  17.2 Hōkūleʻa
  2023-12-03T17:19:57UTC 2023-12-03T07:19:57-10:00 2023-12-03T08:19:57-09:00  31.29410 -128.18695     256  22.1 Hōkūleʻa
  2023-12-03T16:20:29UTC 2023-12-03T06:20:29-10:00 2023-12-03T07:20:29-09:00  31.38141 -127.77215     257  25.6 Hōkūleʻa
  2023-12-03T15:28:16UTC 2023-12-03T05:28:16-10:00 2023-12-03T07:28:16-08:00  31.46606 -127.34989     257  22.5 Hōkūleʻa
  2023-12-03T14:29:18UTC 2023-12-03T04:29:18-10:00 2023-12-03T06:29:18-08:00  31.55221 -126.93011     258  19.3 Hōkūleʻa
  2023-12-03T13:21:20UTC 2023-12-03T03:21:20-10:00 2023-12-03T05:21:20-08:00  31.63092 -126.51351     257  21.8 Hōkūleʻa
  2023-12-03T12:20:15UTC 2023-12-03T02:20:15-10:00 2023-12-03T04:20:15-08:00  31.71753 -126.09234     257  21.9 Hōkūleʻa
  2023-12-03T11:20:10UTC 2023-12-03T01:20:10-10:00 2023-12-03T03:20:10-08:00  31.79756 -125.67452     258  21.9 Hōkūleʻa
  2023-12-03T10:20:25UTC 2023-12-03T00:20:25-10:00 2023-12-03T02:20:25-08:00  31.87534 -125.25768     259  22.0 Hōkūleʻa
  2023-12-03T09:19:58UTC 2023-12-02T23:19:58-10:00 2023-12-03T01:19:58-08:00  31.94895 -124.83325     259  22.4 Hōkūleʻa
  2023-12-03T08:21:06UTC 2023-12-02T22:21:06-10:00 2023-12-03T00:21:06-08:00  32.02154 -124.41032     258  26.3 Hōkūleʻa
  2023-12-03T07:31:09UTC 2023-12-02T21:31:09-10:00 2023-12-02T23:31:09-08:00  32.09805 -123.99110     259  18.3 Hōkūleʻa
  2023-12-03T06:20:45UTC 2023-12-02T20:20:45-10:00 2023-12-02T22:20:45-08:00  32.16855 -123.57900     259  21.1 Hōkūleʻa
  2023-12-03T05:19:57UTC 2023-12-02T19:19:57-10:00 2023-12-02T21:19:57-08:00  32.23673 -123.16620     259  21.3 Hōkūleʻa
  2023-12-03T04:20:23UTC 2023-12-02T18:20:23-10:00 2023-12-02T20:20:23-08:00  32.30475 -122.75915     260  21.2 Hōkūleʻa
  2023-12-03T03:20:14UTC 2023-12-02T17:20:14-10:00 2023-12-02T19:20:14-08:00  32.36857 -122.34808     260  21.0 Hōkūleʻa
  2023-12-03T02:20:05UTC 2023-12-02T16:20:05-10:00 2023-12-02T18:20:05-08:00  32.43280 -121.94125     260  21.0 Hōkūleʻa
  2023-12-03T01:20:12UTC 2023-12-02T15:20:12-10:00 2023-12-02T17:20:12-08:00  32.49272 -121.53488     260  20.6 Hōkūleʻa
  2023-12-03T00:19:14UTC 2023-12-02T14:19:14-10:00 2023-12-02T16:19:14-08:00  32.55557 -121.12841     260  29.8 Hōkūleʻa
  2023-12-02T23:37:20UTC 2023-12-02T13:37:20-10:00 2023-12-02T15:37:20-08:00  32.61696 -120.72402     260  16.1 Hōkūleʻa
  2023-12-02T22:20:04UTC 2023-12-02T12:20:04-10:00 2023-12-02T14:20:04-08:00  32.67616 -120.32051     261  20.8 Hōkūleʻa
  2023-12-02T21:19:33UTC 2023-12-02T11:19:33-10:00 2023-12-02T13:19:33-08:00  32.73347 -119.91176     262  17.9 Hōkūleʻa
  2023-12-02T20:19:04UTC 2023-12-02T10:19:04-10:00 2023-12-02T12:19:04-08:00  32.77827 -119.55949     259  16.5 Hōkūleʻa
  2023-12-02T19:20:11UTC 2023-12-02T09:20:11-10:00 2023-12-02T11:20:11-08:00  32.82925 -119.24496     239  17.0 Hōkūleʻa
  2023-12-02T17:21:07UTC 2023-12-02T07:21:07-10:00 2023-12-02T09:21:07-08:00  33.12231 -118.67397     250  18.4 Hōkūleʻa
  2023-12-02T16:20:54UTC 2023-12-02T06:20:54-10:00 2023-12-02T08:20:54-08:00  33.22702 -118.32913     243  12.4 Hōkūleʻa
  2023-12-02T15:20:14UTC 2023-12-02T05:20:14-10:00 2023-12-02T07:20:14-08:00  33.32287 -118.10657     160   9.7 Hōkūleʻa
  2023-12-02T14:20:22UTC 2023-12-02T04:20:22-10:00 2023-12-02T06:20:22-08:00  33.47380 -118.17298     168   9.3 Hōkūleʻa
  2023-12-02T13:20:18UTC 2023-12-02T03:20:18-10:00 2023-12-02T05:20:18-08:00  33.62555 -118.21223     178   7.5 Hōkūleʻa
  2023-12-02T12:20:20UTC 2023-12-02T02:20:20-10:00 2023-12-02T04:20:20-08:00  33.75128 -118.21819     184   1.1 Hōkūleʻa
  2023-12-02T11:19:54UTC 2023-12-02T01:19:54-10:00 2023-12-02T03:19:54-08:00  33.76992 -118.21682       0   0.0 Hōkūleʻa
  2023-12-01T23:20:22UTC 2023-12-01T13:20:22-10:00 2023-12-01T15:20:22-08:00  33.76975 -118.21693      83   0.0 Hōkūleʻa
  2023-12-01T22:20:10UTC 2023-12-01T12:20:10-10:00 2023-12-01T14:20:10-08:00  33.76969 -118.21757     243   0.1 Hōkūleʻa
  2023-12-01T21:20:08UTC 2023-12-01T11:20:08-10:00 2023-12-01T13:20:08-08:00  33.77035 -118.21602       7   2.7 Hōkūleʻa
  2023-12-01T20:19:21UTC 2023-12-01T10:19:21-10:00 2023-12-01T12:19:21-08:00  33.72515 -118.22220     103   2.8 Hōkūleʻa
  2023-12-01T19:19:02UTC 2023-12-01T09:19:02-10:00 2023-12-01T11:19:02-08:00  33.73588 -118.27795       0   0.0 Hōkūleʻa
  2023-12-01T15:19:58UTC 2023-12-01T05:19:58-10:00 2023-12-01T07:19:58-08:00  33.73588 -118.27795       0   0.0 Hōkūleʻa
  2023-12-01T14:20:02UTC 2023-12-01T04:20:02-10:00 2023-12-01T06:20:02-08:00  33.73588 -118.27795     318   0.2 Hōkūleʻa
  2023-11-16T07:18:33UTC 2023-11-15T21:18:33-10:00 2023-11-15T23:18:33-08:00  32.72076 -117.17427     318   0.0 Hōkūleʻa
  2023-11-13T02:18:33UTC 2023-11-12T16:18:33-10:00 2023-11-12T18:18:33-08:00  32.72074 -117.17427     222   0.0 Hōkūleʻa
  2023-11-13T01:18:54UTC 2023-11-12T15:18:54-10:00 2023-11-12T17:18:54-08:00  32.72076 -117.17425      84   0.8 Hōkūleʻa
  2023-11-13T00:18:43UTC 2023-11-12T14:18:43-10:00 2023-11-12T16:18:43-08:00  32.71945 -117.18955      23   4.5 Hōkūleʻa
  2023-11-12T23:17:56UTC 2023-11-12T13:17:56-10:00 2023-11-12T15:17:56-08:00  32.64889 -117.22468       4   3.5 Hōkūleʻa
  2023-11-12T22:18:32UTC 2023-11-12T12:18:32-10:00 2023-11-12T14:18:32-08:00  32.59076 -117.22983       5   0.6 Hōkūleʻa
  2023-11-12T21:17:38UTC 2023-11-12T11:17:38-10:00 2023-11-12T13:17:38-08:00  32.58133 -117.23086      79   2.6 Hōkūleʻa
  2023-11-12T20:17:43UTC 2023-11-12T10:17:43-10:00 2023-11-12T12:17:43-08:00  32.57308 -117.28073     210   3.2 Hōkūleʻa
  2023-11-12T19:18:42UTC 2023-11-12T09:18:42-10:00 2023-11-12T11:18:42-08:00  32.61898 -117.24899     195   5.7 Hōkūleʻa
  2023-11-12T18:17:41UTC 2023-11-12T08:17:41-10:00 2023-11-12T10:17:41-08:00  32.71295 -117.21854     258   2.7 Hōkūleʻa
  2023-11-12T17:27:15UTC 2023-11-12T07:27:15-10:00 2023-11-12T09:27:15-08:00  32.72078 -117.17430     180   0.0 Hōkūleʻa
  2023-11-12T03:18:30UTC 2023-11-11T17:18:30-10:00 2023-11-11T19:18:30-08:00  32.72077 -117.17425       0   0.0 Hōkūleʻa
  2023-11-12T02:18:46UTC 2023-11-11T16:18:46-10:00 2023-11-11T18:18:46-08:00  32.72076 -117.17425      74   0.1 Hōkūleʻa
  2023-11-12T01:18:43UTC 2023-11-11T15:18:43-10:00 2023-11-11T17:18:43-08:00  32.72008 -117.17700      72   2.6 Hōkūleʻa
  2023-11-12T00:18:41UTC 2023-11-11T14:18:41-10:00 2023-11-11T16:18:41-08:00  32.70643 -117.22657      19   5.7 Hōkūleʻa
  2023-11-11T23:17:47UTC 2023-11-11T13:17:47-10:00 2023-11-11T15:17:47-08:00  32.61516 -117.26296      57   5.7 Hōkūleʻa
  2023-11-11T22:18:27UTC 2023-11-11T12:18:27-10:00 2023-11-11T14:18:27-08:00  32.56461 -117.35649     237   4.0 Hōkūleʻa
  2023-11-11T21:18:40UTC 2023-11-11T11:18:40-10:00 2023-11-11T13:18:40-08:00  32.60029 -117.29107      98   1.1 Hōkūleʻa
  2023-11-11T20:17:51UTC 2023-11-11T10:17:51-10:00 2023-11-11T12:17:51-08:00  32.60270 -117.31227     239   4.4 Hōkūleʻa
  2023-11-11T19:17:30UTC 2023-11-11T09:17:30-10:00 2023-11-11T11:17:30-08:00  32.64126 -117.23678     206   5.3 Hōkūleʻa
  2023-11-11T18:18:33UTC 2023-11-11T08:18:33-10:00 2023-11-11T10:18:33-08:00  32.71962 -117.19176     266   0.9 Hōkūleʻa
  2023-11-11T17:17:46UTC 2023-11-11T07:17:46-10:00 2023-11-11T09:17:46-08:00  32.72076 -117.17430      90   0.0 Hōkūleʻa
  2023-11-09T01:18:35UTC 2023-11-08T15:18:35-10:00 2023-11-08T17:18:35-08:00  32.72074 -117.17425     107   0.0 Hōkūleʻa
  2023-11-09T00:18:32UTC 2023-11-08T14:18:32-10:00 2023-11-08T16:18:32-08:00  32.72075 -117.17430      70   2.9 Hōkūleʻa
  2023-11-08T23:18:52UTC 2023-11-08T13:18:52-10:00 2023-11-08T15:18:52-08:00  32.70477 -117.22760      58   2.6 Hōkūleʻa
  2023-11-08T22:17:33UTC 2023-11-08T12:17:33-10:00 2023-11-08T14:17:33-08:00  32.68111 -117.27294     169   7.5 Hōkūleʻa
  2023-11-08T21:18:32UTC 2023-11-08T11:18:32-10:00 2023-11-08T13:18:32-08:00  32.80209 -117.30010     191   3.9 Hōkūleʻa
  2023-11-08T20:17:51UTC 2023-11-08T10:17:51-10:00 2023-11-08T12:17:51-08:00  32.86632 -117.28532     168   6.9 Hōkūleʻa
  2023-11-08T19:18:38UTC 2023-11-08T09:18:38-10:00 2023-11-08T11:18:38-08:00  32.97744 -117.31281     124   6.4 Hōkūleʻa
  2023-11-08T18:17:50UTC 2023-11-08T08:17:50-10:00 2023-11-08T10:17:50-08:00  33.03869 -117.41979     155   7.0 Hōkūleʻa
  2023-11-08T17:17:29UTC 2023-11-08T07:17:29-10:00 2023-11-08T09:17:29-08:00  33.14536 -117.47831     156   7.3 Hōkūleʻa
  2023-11-08T16:18:35UTC 2023-11-08T06:18:35-10:00 2023-11-08T08:18:35-08:00  33.25395 -117.53607     156   5.9 Hōkūleʻa
  2023-11-08T15:18:52UTC 2023-11-08T05:18:52-10:00 2023-11-08T07:18:52-08:00  33.34317 -117.58296     140   4.1 Hōkūleʻa
  2023-11-08T14:18:42UTC 2023-11-08T04:18:42-10:00 2023-11-08T06:18:42-08:00  33.39543 -117.63467     137   5.8 Hōkūleʻa
  2023-11-08T13:26:13UTC 2023-11-08T03:26:13-10:00 2023-11-08T05:26:13-08:00  33.45813 -117.70327     144   0.2 Hōkūleʻa
  2023-11-08T12:18:51UTC 2023-11-08T02:18:51-10:00 2023-11-08T04:18:51-08:00  33.46132 -117.70606       0   0.0 Hōkūleʻa
  2023-11-05T00:18:34UTC 2023-11-04T14:18:34-10:00 2023-11-04T16:18:34-08:00  33.46127 -117.70606       0   0.0 Hōkūleʻa
  2023-11-04T23:17:44UTC 2023-11-04T13:17:44-10:00 2023-11-04T15:17:44-08:00  33.46126 -117.70606     319   1.9 Hōkūleʻa
  2023-11-04T22:18:37UTC 2023-11-04T12:18:37-10:00 2023-11-04T14:18:37-08:00  33.43730 -117.68098      99   0.2 Hōkūleʻa
  2023-11-04T21:17:41UTC 2023-11-04T11:17:41-10:00 2023-11-04T13:17:41-08:00  33.43787 -117.68548      98   3.8 Hōkūleʻa
  2023-11-04T20:17:43UTC 2023-11-04T10:17:43-10:00 2023-11-04T12:17:43-08:00  33.44635 -117.76110     139   6.4 Hōkūleʻa
  2023-11-04T19:18:27UTC 2023-11-04T09:18:27-10:00 2023-11-04T11:18:27-08:00  33.52571 -117.84363     142   2.5 Hōkūleʻa
  2023-11-04T18:29:53UTC 2023-11-04T08:29:53-10:00 2023-11-04T10:29:53-08:00  33.55245 -117.86839     167   2.3 Hōkūleʻa
  2023-11-04T17:17:47UTC 2023-11-04T07:17:47-10:00 2023-11-04T09:17:47-08:00  33.59811 -117.88141     121   2.2 Hōkūleʻa
  2023-11-04T16:18:24UTC 2023-11-04T06:18:24-10:00 2023-11-04T08:18:24-08:00  33.61672 -117.91905     150   0.0 Hōkūleʻa
  2023-10-31T01:18:33UTC 2023-10-30T15:18:33-10:00 2023-10-30T17:18:33-08:00  33.61668 -117.91888     291   0.0 Hōkūleʻa
  2023-10-31T00:17:48UTC 2023-10-30T14:17:48-10:00 2023-10-30T16:17:48-08:00  33.61666 -117.91881     303   0.9 Hōkūleʻa
  2023-10-30T23:18:30UTC 2023-10-30T13:18:30-10:00 2023-10-30T15:18:30-08:00  33.60852 -117.90409     330   1.6 Hōkūleʻa
  2023-10-30T22:18:44UTC 2023-10-30T12:18:44-10:00 2023-10-30T14:18:44-08:00  33.58562 -117.88854     107   7.5 Hōkūleʻa
  2023-10-30T21:17:41UTC 2023-10-30T11:17:41-10:00 2023-10-30T13:17:41-08:00  33.62273 -118.03400     106   7.6 Hōkūleʻa
  2023-10-30T20:17:40UTC 2023-10-30T10:17:40-10:00 2023-10-30T12:17:40-08:00  33.65706 -118.17991     107   5.8 Hōkūleʻa
  2023-10-30T19:18:31UTC 2023-10-30T09:18:31-10:00 2023-10-30T11:18:31-08:00  33.68523 -118.28919     117   3.7 Hōkūleʻa
  2023-10-30T18:17:57UTC 2023-10-30T08:17:57-10:00 2023-10-30T10:17:57-08:00  33.71299 -118.35533     136   6.7 Hōkūleʻa
  2023-10-30T17:17:44UTC 2023-10-30T07:17:44-10:00 2023-10-30T09:17:44-08:00  33.79414 -118.44785     172   6.3 Hōkūleʻa
  2023-10-30T16:18:29UTC 2023-10-30T06:18:29-10:00 2023-10-30T08:18:29-08:00  33.89728 -118.46581     186   2.3 Hōkūleʻa
  2023-10-30T15:18:36UTC 2023-10-30T05:18:36-10:00 2023-10-30T07:18:36-08:00  33.93503 -118.46122     197   2.6 Hōkūleʻa
  2023-10-30T14:18:46UTC 2023-10-30T04:18:46-10:00 2023-10-30T06:18:46-08:00  33.97613 -118.44590       0   0.0 Hōkūleʻa
  2023-10-25T01:18:33UTC 2023-10-24T15:18:33-10:00 2023-10-24T17:18:33-08:00  33.97611 -118.44590     180   0.0 Hōkūleʻa
  2023-10-25T00:18:51UTC 2023-10-24T14:18:51-10:00 2023-10-24T16:18:51-08:00  33.97613 -118.44590      21   0.2 Hōkūleʻa
  2023-10-24T23:18:31UTC 2023-10-24T13:18:31-10:00 2023-10-24T15:18:31-08:00  33.97261 -118.44749      86   4.2 Hōkūleʻa
  2023-10-24T22:17:41UTC 2023-10-24T12:17:41-10:00 2023-10-24T14:17:41-08:00  33.96780 -118.53259      96   9.1 Hōkūleʻa
  2023-10-24T21:17:33UTC 2023-10-24T11:17:33-10:00 2023-10-24T13:17:33-08:00  33.98461 -118.71451     100   8.0 Hōkūleʻa
  2023-10-24T20:18:46UTC 2023-10-24T10:18:46-10:00 2023-10-24T12:18:46-08:00  34.00732 -118.86941     109   7.5 Hōkūleʻa
  2023-10-24T19:17:41UTC 2023-10-24T09:17:41-10:00 2023-10-24T11:17:41-08:00  34.04875 -119.01401     114   7.2 Hōkūleʻa
  2023-10-24T18:18:31UTC 2023-10-24T08:18:31-10:00 2023-10-24T10:18:31-08:00  34.09653 -119.14347     129   7.0 Hōkūleʻa
  2023-10-24T17:17:49UTC 2023-10-24T07:17:49-10:00 2023-10-24T09:17:49-08:00  34.17164 -119.25346     172   4.5 Hōkūleʻa
  2023-10-24T16:18:24UTC 2023-10-24T06:18:24-10:00 2023-10-24T08:18:24-08:00  34.24583 -119.26560       0   0.0 Hōkūleʻa
  2023-10-19T00:18:48UTC 2023-10-18T14:18:48-10:00 2023-10-18T16:18:48-08:00  34.24583 -119.26560      90   0.0 Hōkūleʻa
  2023-10-18T23:18:34UTC 2023-10-18T13:18:34-10:00 2023-10-18T15:18:34-08:00  34.24583 -119.26562      89   2.2 Hōkūleʻa
  2023-10-18T22:18:35UTC 2023-10-18T12:18:35-10:00 2023-10-18T14:18:35-08:00  34.24518 -119.31013     102   9.5 Hōkūleʻa
  2023-10-18T21:17:42UTC 2023-10-18T11:17:42-10:00 2023-10-18T13:17:42-08:00  34.27802 -119.49932      97   9.4 Hōkūleʻa
  2023-10-18T20:17:43UTC 2023-10-18T10:17:43-10:00 2023-10-18T12:17:43-08:00  34.29859 -119.68699      97   9.2 Hōkūleʻa
  2023-10-18T19:18:32UTC 2023-10-18T09:18:32-10:00 2023-10-18T11:18:32-08:00  34.31747 -119.86717      96   8.4 Hōkūleʻa
  2023-10-18T18:18:40UTC 2023-10-18T08:18:40-10:00 2023-10-18T10:18:40-08:00  34.33211 -120.03531     102   7.4 Hōkūleʻa
  2023-10-18T17:17:40UTC 2023-10-18T07:17:40-10:00 2023-10-18T09:17:40-08:00  34.35778 -120.18369     103   8.7 Hōkūleʻa
  2023-10-18T16:26:06UTC 2023-10-18T06:26:06-10:00 2023-10-18T08:26:06-08:00  34.38533 -120.33100     101   6.2 Hōkūleʻa
  2023-10-18T15:18:32UTC 2023-10-18T05:18:32-10:00 2023-10-18T07:18:32-08:00  34.40854 -120.46981     117   5.9 Hōkūleʻa
  2023-10-18T14:18:31UTC 2023-10-18T04:18:31-10:00 2023-10-18T06:18:31-08:00  34.45293 -120.57648     131   6.8 Hōkūleʻa
  2023-10-18T13:18:40UTC 2023-10-18T03:18:40-10:00 2023-10-18T05:18:40-08:00  34.52707 -120.68076     139   6.2 Hōkūleʻa
  2023-10-18T12:18:52UTC 2023-10-18T02:18:52-10:00 2023-10-18T04:18:52-08:00  34.60501 -120.76138     176   6.3 Hōkūleʻa
  2023-10-18T11:19:29UTC 2023-10-18T01:19:29-10:00 2023-10-18T03:19:29-08:00  34.70909 -120.76936     166   6.7 Hōkūleʻa
  2023-10-18T10:18:35UTC 2023-10-18T00:18:35-10:00 2023-10-18T02:18:35-08:00  34.81943 -120.80146     168   6.6 Hōkūleʻa
  2023-10-18T09:18:50UTC 2023-10-17T23:18:50-10:00 2023-10-18T01:18:50-08:00  34.92622 -120.82907     167   6.5 Hōkūleʻa
  2023-10-18T08:18:36UTC 2023-10-17T22:18:36-10:00 2023-10-18T00:18:36-08:00  35.03225 -120.85849     165   6.9 Hōkūleʻa
  2023-10-18T07:18:33UTC 2023-10-17T21:18:33-10:00 2023-10-17T23:18:33-08:00  35.14383 -120.89602     169   6.9 Hōkūleʻa
  2023-10-18T06:17:49UTC 2023-10-17T20:17:49-10:00 2023-10-17T22:17:49-08:00  35.25781 -120.92194     201   6.7 Hōkūleʻa
  2023-10-18T05:18:26UTC 2023-10-17T19:18:26-10:00 2023-10-17T21:18:26-08:00  35.36070 -120.87379     263   1.0 Hōkūleʻa
  2023-10-18T04:18:33UTC 2023-10-17T18:18:33-10:00 2023-10-17T20:18:33-08:00  35.36284 -120.85283     180   0.0 Hōkūleʻa
  2023-10-14T03:18:25UTC 2023-10-13T17:18:25-10:00 2023-10-13T19:18:25-08:00  35.36268 -120.85274      29   0.0 Hōkūleʻa
  2023-10-14T02:18:52UTC 2023-10-13T16:18:52-10:00 2023-10-13T18:18:52-08:00  35.36265 -120.85276     349   0.2 Hōkūleʻa
  2023-10-14T01:18:40UTC 2023-10-13T15:18:40-10:00 2023-10-13T17:18:40-08:00  35.36008 -120.85214     339   0.0 Hōkūleʻa
  2023-10-14T00:17:34UTC 2023-10-13T14:17:34-10:00 2023-10-13T16:17:34-08:00  35.35956 -120.85191     159   0.1 Hōkūleʻa
  2023-10-13T23:18:38UTC 2023-10-13T13:18:38-10:00 2023-10-13T15:18:38-08:00  35.36111 -120.85264     110   2.7 Hōkūleʻa
  2023-10-13T22:17:34UTC 2023-10-13T12:17:34-10:00 2023-10-13T14:17:34-08:00  35.37676 -120.90636     130   8.2 Hōkūleʻa
  2023-10-13T21:18:34UTC 2023-10-13T11:18:34-10:00 2023-10-13T13:18:34-08:00  35.46306 -121.03307     131   8.4 Hōkūleʻa
  2023-10-13T20:17:49UTC 2023-10-13T10:17:49-10:00 2023-10-13T12:17:49-08:00  35.55679 -121.16358     132   7.9 Hōkūleʻa
  2023-10-13T19:17:32UTC 2023-10-13T09:17:32-10:00 2023-10-13T11:17:32-08:00  35.64635 -121.28447     135   7.4 Hōkūleʻa
  2023-10-13T18:17:49UTC 2023-10-13T08:17:49-10:00 2023-10-13T10:17:49-08:00  35.73284 -121.39036     142   8.6 Hōkūleʻa
  2023-10-13T17:25:15UTC 2023-10-13T07:25:15-10:00 2023-10-13T09:25:15-08:00  35.83299 -121.48467     140   6.7 Hōkūleʻa
  2023-10-13T16:18:39UTC 2023-10-13T06:18:39-10:00 2023-10-13T08:18:39-08:00  35.92814 -121.58267     142   7.3 Hōkūleʻa
  2023-10-13T15:18:39UTC 2023-10-13T05:18:39-10:00 2023-10-13T07:18:39-08:00  36.02438 -121.67521     143   7.6 Hōkūleʻa
  2023-10-13T14:18:51UTC 2023-10-13T04:18:51-10:00 2023-10-13T06:18:51-08:00  36.12558 -121.76926     143   7.5 Hōkūleʻa
  2023-10-13T13:18:40UTC 2023-10-13T03:18:40-10:00 2023-10-13T05:18:40-08:00  36.22612 -121.86121     142   7.0 Hōkūleʻa
  2023-10-13T12:18:24UTC 2023-10-13T02:18:24-10:00 2023-10-13T04:18:24-08:00  36.31897 -121.95071     171   7.8 Hōkūleʻa
  2023-10-13T11:19:48UTC 2023-10-13T01:19:48-10:00 2023-10-13T03:19:48-08:00  36.44485 -121.97588     175   7.0 Hōkūleʻa
  2023-10-13T10:17:37UTC 2023-10-13T00:17:37-10:00 2023-10-13T02:17:37-08:00  36.56556 -121.98996     212   5.9 Hōkūleʻa
  2023-10-13T09:18:42UTC 2023-10-12T23:18:42-10:00 2023-10-13T01:18:42-08:00  36.64695 -121.92706     326   3.0 Hōkūleʻa
  2023-10-13T08:18:26UTC 2023-10-12T22:18:26-10:00 2023-10-13T00:18:26-08:00  36.60554 -121.89235       0   0.0 Hōkūleʻa
  2023-10-06T00:18:50UTC 2023-10-05T14:18:50-10:00 2023-10-05T16:18:50-08:00  36.60551 -121.89258     244   0.0 Hōkūleʻa
  2023-10-05T23:17:33UTC 2023-10-05T13:17:33-10:00 2023-10-05T15:17:33-08:00  36.60588 -121.89164     162   2.3 Hōkūleʻa
  2023-10-05T22:18:32UTC 2023-10-05T12:18:32-10:00 2023-10-05T14:18:32-08:00  36.64199 -121.90604     137   8.1 Hōkūleʻa
  2023-10-05T21:18:56UTC 2023-10-05T11:18:56-10:00 2023-10-05T13:18:56-08:00  36.74077 -122.02019     140   7.8 Hōkūleʻa
  2023-10-05T20:17:30UTC 2023-10-05T10:17:30-10:00 2023-10-05T12:17:30-08:00  36.84279 -122.12816     141   8.4 Hōkūleʻa
  2023-10-05T19:18:36UTC 2023-10-05T09:18:36-10:00 2023-10-05T11:18:36-08:00  36.94926 -122.23524     141   7.8 Hōkūleʻa
  2023-10-05T18:17:52UTC 2023-10-05T08:17:52-10:00 2023-10-05T10:17:52-08:00  37.05214 -122.33862     146   7.9 Hōkūleʻa
  2023-10-05T17:17:41UTC 2023-10-05T07:17:41-10:00 2023-10-05T09:17:41-08:00  37.16070 -122.43136     160   8.1 Hōkūleʻa
  2023-10-05T16:18:32UTC 2023-10-05T06:18:32-10:00 2023-10-05T08:18:32-08:00  37.28575 -122.48728     176   7.9 Hōkūleʻa
  2023-10-05T15:18:38UTC 2023-10-05T05:18:38-10:00 2023-10-05T07:18:38-08:00  37.41744 -122.49981     189   5.1 Hōkūleʻa
  2023-10-05T14:18:45UTC 2023-10-05T04:18:45-10:00 2023-10-05T06:18:45-08:00  37.50205 -122.48359       0   0.0 Hōkūleʻa
  2023-10-02T00:17:49UTC 2023-10-01T14:17:49-10:00 2023-10-01T16:17:49-08:00  37.50189 -122.48359       0   0.0 Hōkūleʻa
  2023-10-01T23:17:28UTC 2023-10-01T13:17:28-10:00 2023-10-01T15:17:28-08:00  37.50186 -122.48359      39   1.5 Hōkūleʻa
  2023-10-01T22:18:28UTC 2023-10-01T12:18:28-10:00 2023-10-01T14:18:28-08:00  37.48288 -122.50260     147   4.2 Hōkūleʻa
  2023-10-01T21:17:40UTC 2023-10-01T11:17:40-10:00 2023-10-01T13:17:40-08:00  37.54321 -122.55114     179   3.9 Hōkūleʻa
  2023-10-01T20:17:34UTC 2023-10-01T10:17:34-10:00 2023-10-01T12:17:34-08:00  37.60797 -122.55221     179   2.6 Hōkūleʻa
  2023-10-01T19:17:44UTC 2023-10-01T09:17:44-10:00 2023-10-01T11:17:44-08:00  37.65133 -122.55294     188   2.9 Hōkūleʻa
  2023-10-01T18:17:34UTC 2023-10-01T08:17:34-10:00 2023-10-01T10:17:34-08:00  37.69891 -122.54444     190   3.1 Hōkūleʻa
  2023-10-01T17:18:32UTC 2023-10-01T07:18:32-10:00 2023-10-01T09:18:32-08:00  37.74905 -122.53363     200   3.1 Hōkūleʻa
  2023-10-01T16:18:51UTC 2023-10-01T06:18:51-10:00 2023-10-01T08:18:51-08:00  37.79821 -122.51131     256   4.9 Hōkūleʻa
  2023-10-01T15:27:21UTC 2023-10-01T05:27:21-10:00 2023-10-01T07:27:21-08:00  37.81578 -122.42548     332   0.4 Hōkūleʻa
  2023-10-01T14:27:36UTC 2023-10-01T04:27:36-10:00 2023-10-01T06:27:36-08:00  37.81033 -122.42181     180   0.0 Hōkūleʻa
  2023-09-25T02:18:48UTC 2023-09-24T16:18:48-10:00 2023-09-24T18:18:48-08:00  37.81035 -122.42175     212   0.0 Hōkūleʻa
  2023-09-25T01:18:34UTC 2023-09-24T15:18:34-10:00 2023-09-24T17:18:34-08:00  37.81062 -122.42153      34   0.2 Hōkūleʻa
  2023-09-25T00:17:49UTC 2023-09-24T14:17:49-10:00 2023-09-24T16:17:49-08:00  37.80803 -122.42370       0   0.0 Hōkūleʻa
  2023-09-24T21:18:37UTC 2023-09-24T11:18:37-10:00 2023-09-24T13:18:37-08:00  37.80799 -122.42372     173   0.0 Hōkūleʻa
  2023-09-24T20:17:52UTC 2023-09-24T10:17:52-10:00 2023-09-24T12:17:52-08:00  37.80812 -122.42374     174   0.2 Hōkūleʻa
  2023-09-24T19:17:40UTC 2023-09-24T09:17:40-10:00 2023-09-24T11:17:40-08:00  37.81096 -122.42413      85   4.4 Hōkūleʻa
  2023-09-24T18:18:41UTC 2023-09-24T08:18:41-10:00 2023-09-24T10:18:41-08:00  37.80457 -122.51528     212   3.7 Hōkūleʻa
  2023-09-24T17:17:53UTC 2023-09-24T07:17:53-10:00 2023-09-24T09:17:53-08:00  37.85704 -122.47402      84   0.2 Hōkūleʻa
  2023-09-24T16:18:29UTC 2023-09-24T06:18:29-10:00 2023-09-24T08:18:29-08:00  37.85673 -122.47788     270   0.0 Hōkūleʻa
  2023-09-24T02:17:44UTC 2023-09-23T16:17:44-10:00 2023-09-23T18:17:44-08:00  37.85674 -122.47784     237   0.0 Hōkūleʻa
  2023-09-24T01:18:32UTC 2023-09-23T15:18:32-10:00 2023-09-23T17:18:32-08:00  37.85675 -122.47782     124   1.0 Hōkūleʻa
  2023-09-24T00:26:25UTC 2023-09-23T14:26:25-10:00 2023-09-23T16:26:25-08:00  37.86508 -122.49353       0   0.0 Hōkūleʻa
  2023-09-16T07:18:25UTC 2023-09-15T21:18:25-10:00 2023-09-15T23:18:25-08:00  37.86501 -122.49348     180   0.0 Hōkūleʻa
  2023-09-16T06:18:33UTC 2023-09-15T20:18:33-10:00 2023-09-15T22:18:33-08:00  37.86502 -122.49348     282   0.5 Hōkūleʻa
  2023-09-16T05:18:49UTC 2023-09-15T19:18:49-10:00 2023-09-15T21:18:49-08:00  37.86318 -122.48267      21   3.2 Hōkūleʻa
  2023-09-16T04:18:35UTC 2023-09-15T18:18:35-10:00 2023-09-15T20:18:35-08:00  37.81276 -122.50672     105   6.9 Hōkūleʻa
  2023-09-16T03:17:32UTC 2023-09-15T17:17:32-10:00 2023-09-15T19:17:32-08:00  37.84388 -122.64864     114   6.2 Hōkūleʻa
  2023-09-16T02:18:45UTC 2023-09-15T16:18:45-10:00 2023-09-15T18:18:45-08:00  37.88576 -122.76559     118   6.0 Hōkūleʻa
  2023-09-16T01:18:36UTC 2023-09-15T15:18:36-10:00 2023-09-15T17:18:36-08:00  37.93255 -122.87723     116   5.8 Hōkūleʻa
  2023-09-16T00:18:40UTC 2023-09-15T14:18:40-10:00 2023-09-15T16:18:40-08:00  37.97481 -122.98817     148   4.9 Hōkūleʻa
  2023-09-15T23:18:35UTC 2023-09-15T13:18:35-10:00 2023-09-15T15:18:35-08:00  38.04472 -123.04239     184   5.5 Hōkūleʻa
  2023-09-15T22:17:51UTC 2023-09-15T12:17:51-10:00 2023-09-15T14:17:51-08:00  38.13811 -123.03443     179   5.9 Hōkūleʻa
  2023-09-15T21:18:38UTC 2023-09-15T11:18:38-10:00 2023-09-15T13:18:38-08:00  38.23457 -123.03619     177   3.6 Hōkūleʻa
  2023-09-15T20:24:25UTC 2023-09-15T10:24:25-10:00 2023-09-15T12:24:25-08:00  38.28848 -123.03921      88   0.4 Hōkūleʻa
  2023-09-15T19:18:33UTC 2023-09-15T09:18:33-10:00 2023-09-15T11:18:33-08:00  38.28817 -123.04855     321   0.3 Hōkūleʻa
  2023-09-15T18:17:43UTC 2023-09-15T08:17:43-10:00 2023-09-15T10:17:43-08:00  38.28413 -123.04447     122   4.3 Hōkūleʻa
  2023-09-15T17:18:43UTC 2023-09-15T07:18:43-10:00 2023-09-15T09:18:43-08:00  38.32082 -123.12026     133   6.8 Hōkūleʻa
  2023-09-15T16:17:32UTC 2023-09-15T06:17:32-10:00 2023-09-15T08:17:32-08:00  38.40037 -123.22686     130   7.2 Hōkūleʻa
  2023-09-15T15:18:32UTC 2023-09-15T05:18:32-10:00 2023-09-15T07:18:32-08:00  38.47631 -123.34097     136   6.9 Hōkūleʻa
  2023-09-15T14:18:43UTC 2023-09-15T04:18:43-10:00 2023-09-15T06:18:43-08:00  38.55826 -123.44182     136   6.7 Hōkūleʻa
  2023-09-15T13:18:37UTC 2023-09-15T03:18:37-10:00 2023-09-15T05:18:37-08:00  38.63853 -123.54120     139   6.8 Hōkūleʻa
  2023-09-15T12:18:32UTC 2023-09-15T02:18:32-10:00 2023-09-15T04:18:32-08:00  38.72518 -123.63625     143   7.1 Hōkūleʻa
  2023-09-15T11:17:52UTC 2023-09-15T01:17:52-10:00 2023-09-15T03:17:52-08:00  38.82042 -123.72751     146   8.3 Hōkūleʻa
  2023-09-15T10:26:49UTC 2023-09-15T00:26:49-10:00 2023-09-15T02:26:49-08:00  38.91802 -123.81036     168   5.8 Hōkūleʻa
  2023-09-15T09:18:52UTC 2023-09-14T23:18:52-10:00 2023-09-15T01:18:52-08:00  39.02544 -123.83950     166   6.8 Hōkūleʻa
  2023-09-15T08:18:31UTC 2023-09-14T22:18:31-10:00 2023-09-15T00:18:31-08:00  39.13588 -123.87499     161   7.0 Hōkūleʻa
  2023-09-15T07:18:36UTC 2023-09-14T21:18:36-10:00 2023-09-14T23:18:36-08:00  39.24594 -123.92473     152   6.7 Hōkūleʻa
  2023-09-15T06:18:42UTC 2023-09-14T20:18:42-10:00 2023-09-14T22:18:42-08:00  39.34378 -123.99284     154   6.9 Hōkūleʻa
  2023-09-15T05:18:40UTC 2023-09-14T19:18:40-10:00 2023-09-14T21:18:40-08:00  39.44815 -124.05760     153   6.4 Hōkūleʻa
  2023-09-15T04:18:37UTC 2023-09-14T18:18:37-10:00 2023-09-14T20:18:37-08:00  39.54385 -124.12055     157   6.6 Hōkūleʻa
  2023-09-15T03:17:40UTC 2023-09-14T17:17:40-10:00 2023-09-14T19:17:40-08:00  39.64727 -124.17638     159   6.7 Hōkūleʻa
  2023-09-15T02:18:44UTC 2023-09-14T16:18:44-10:00 2023-09-14T18:18:44-08:00  39.75047 -124.22634     155   6.8 Hōkūleʻa
  2023-09-15T01:18:32UTC 2023-09-14T15:18:32-10:00 2023-09-14T17:18:32-08:00  39.85334 -124.28878     156   6.8 Hōkūleʻa
  2023-09-15T00:18:39UTC 2023-09-14T14:18:39-10:00 2023-09-14T16:18:39-08:00  39.95606 -124.34951     180   5.8 Hōkūleʻa
  2023-09-14T23:17:48UTC 2023-09-14T13:17:48-10:00 2023-09-14T15:17:48-08:00  40.05362 -124.34961     177   5.2 Hōkūleʻa
  2023-09-14T22:18:44UTC 2023-09-14T12:18:44-10:00 2023-09-14T14:18:44-08:00  40.13941 -124.35584     158   5.4 Hōkūleʻa
  2023-09-14T21:17:37UTC 2023-09-14T11:17:37-10:00 2023-09-14T13:17:37-08:00  40.22410 -124.40058     156   5.8 Hōkūleʻa
  2023-09-14T20:18:46UTC 2023-09-14T10:18:46-10:00 2023-09-14T12:18:46-08:00  40.31144 -124.45019     165   6.2 Hōkūleʻa
  2023-09-14T19:17:42UTC 2023-09-14T09:17:42-10:00 2023-09-14T11:17:42-08:00  40.41248 -124.48548     194   7.0 Hōkūleʻa
  2023-09-14T18:17:42UTC 2023-09-14T08:17:42-10:00 2023-09-14T10:17:42-08:00  40.52575 -124.44974     210   7.6 Hōkūleʻa
  2023-09-14T17:18:30UTC 2023-09-14T07:18:30-10:00 2023-09-14T09:18:30-08:00  40.63345 -124.36717     205   7.6 Hōkūleʻa
  2023-09-14T16:18:34UTC 2023-09-14T06:18:34-10:00 2023-09-14T08:18:34-08:00  40.74870 -124.29724     253   4.1 Hōkūleʻa
  2023-09-14T15:18:39UTC 2023-09-14T05:18:39-10:00 2023-09-14T07:18:39-08:00  40.76913 -124.21121     222   3.0 Hōkūleʻa
  2023-09-14T14:18:39UTC 2023-09-14T04:18:39-10:00 2023-09-14T06:18:39-08:00  40.80616 -124.16714     143   0.0 Hōkūleʻa
  2023-09-12T18:17:43UTC 2023-09-12T08:17:43-10:00 2023-09-12T10:17:43-08:00  40.80616 -124.16718     251   0.0 Hōkūleʻa
  2023-09-12T17:18:31UTC 2023-09-12T07:18:31-10:00 2023-09-12T09:18:31-08:00  40.80617 -124.16714      75   0.6 Hōkūleʻa
  2023-09-12T16:17:32UTC 2023-09-12T06:17:32-10:00 2023-09-12T08:17:32-08:00  40.80351 -124.17978      72   4.3 Hōkūleʻa
  2023-09-12T15:18:41UTC 2023-09-12T05:18:41-10:00 2023-09-12T07:18:41-08:00  40.78174 -124.26887     171   6.6 Hōkūleʻa
  2023-09-12T14:18:41UTC 2023-09-12T04:18:41-10:00 2023-09-12T06:18:41-08:00  40.89024 -124.29254     172   7.5 Hōkūleʻa
  2023-09-12T13:27:26UTC 2023-09-12T03:27:26-10:00 2023-09-12T05:27:26-08:00  40.99626 -124.31271     173   6.2 Hōkūleʻa
  2023-09-12T12:18:50UTC 2023-09-12T02:18:50-10:00 2023-09-12T04:18:50-08:00  41.11433 -124.33273     171   6.1 Hōkūleʻa
  2023-09-12T11:18:38UTC 2023-09-12T01:18:38-10:00 2023-09-12T03:18:38-08:00  41.21575 -124.35283     172   6.2 Hōkūleʻa
  2023-09-12T10:18:34UTC 2023-09-12T00:18:34-10:00 2023-09-12T02:18:34-08:00  41.31828 -124.37150     169   6.5 Hōkūleʻa
  2023-09-12T09:18:30UTC 2023-09-11T23:18:30-10:00 2023-09-12T01:18:30-08:00  41.42411 -124.39817     170   7.0 Hōkūleʻa
  2023-09-12T08:18:48UTC 2023-09-11T22:18:48-10:00 2023-09-12T00:18:48-08:00  41.53856 -124.42538     174   7.5 Hōkūleʻa
  2023-09-12T07:18:36UTC 2023-09-11T21:18:36-10:00 2023-09-11T23:18:36-08:00  41.66280 -124.44158     180   4.0 Hōkūleʻa
  2023-09-12T06:17:32UTC 2023-09-11T20:17:32-10:00 2023-09-11T22:17:32-08:00  41.73122 -124.44169     173   7.9 Hōkūleʻa
  2023-09-12T05:18:45UTC 2023-09-11T19:18:45-10:00 2023-09-11T21:18:45-08:00  41.85887 -124.46334     171   7.6 Hōkūleʻa
  2023-09-12T04:18:33UTC 2023-09-11T18:18:33-10:00 2023-09-11T20:18:33-08:00  41.98524 -124.48922     169   7.3 Hōkūleʻa
  2023-09-12T03:18:39UTC 2023-09-11T17:18:39-10:00 2023-09-11T19:18:39-08:00  42.10505 -124.52044     160   7.3 Hōkūleʻa
  2023-09-12T02:18:51UTC 2023-09-11T16:18:51-10:00 2023-09-11T18:18:51-08:00  42.21935 -124.57490     168  10.2 Hōkūleʻa
  2023-09-12T01:28:38UTC 2023-09-11T15:28:38-10:00 2023-09-11T17:28:38-08:00  42.35869 -124.61620     173   7.3 Hōkūleʻa
  2023-09-12T00:17:24UTC 2023-09-11T14:17:24-10:00 2023-09-11T16:17:24-08:00  42.50270 -124.64041     176   8.8 Hōkūleʻa
  2023-09-11T23:18:38UTC 2023-09-11T13:18:38-10:00 2023-09-11T15:18:38-08:00  42.64549 -124.65440     171   7.7 Hōkūleʻa
  2023-09-11T22:17:40UTC 2023-09-11T12:17:40-10:00 2023-09-11T14:17:40-08:00  42.77457 -124.68122     189   8.0 Hōkūleʻa
  2023-09-11T21:18:39UTC 2023-09-11T11:18:39-10:00 2023-09-11T13:18:39-08:00  42.90400 -124.65446     199   8.1 Hōkūleʻa
  2023-09-11T20:17:47UTC 2023-09-11T10:17:47-10:00 2023-09-11T12:17:47-08:00  43.03345 -124.59297     198   8.5 Hōkūleʻa
  2023-09-11T19:18:39UTC 2023-09-11T09:18:39-10:00 2023-09-11T11:18:39-08:00  43.16598 -124.53357     199   7.9 Hōkūleʻa
  2023-09-11T18:17:52UTC 2023-09-11T08:17:52-10:00 2023-09-11T10:17:52-08:00  43.29216 -124.47488     231   6.7 Hōkūleʻa
  2023-09-11T17:18:30UTC 2023-09-11T07:18:30-10:00 2023-09-11T09:18:30-08:00  43.36203 -124.35847     228   5.3 Hōkūleʻa
  2023-09-11T16:18:51UTC 2023-09-11T06:18:51-10:00 2023-09-11T08:18:51-08:00  43.42112 -124.26855     321   4.0 Hōkūleʻa
  2023-09-11T15:18:38UTC 2023-09-11T05:18:38-10:00 2023-09-11T07:18:38-08:00  43.36964 -124.21121     154   0.0 Hōkūleʻa
  2023-09-09T17:18:44UTC 2023-09-09T07:18:44-10:00 2023-09-09T09:18:44-08:00  43.36965 -124.21121     180   0.0 Hōkūleʻa
  2023-09-09T16:17:34UTC 2023-09-09T06:17:34-10:00 2023-09-09T08:17:34-08:00  43.36966 -124.21121     150   4.7 Hōkūleʻa
  2023-09-09T15:29:25UTC 2023-09-09T05:29:25-10:00 2023-09-09T07:29:25-08:00  43.42393 -124.25488      57   5.4 Hōkūleʻa
  2023-09-09T14:18:47UTC 2023-09-09T04:18:47-10:00 2023-09-09T06:18:47-08:00  43.36628 -124.37588     157   4.7 Hōkūleʻa
  2023-09-09T13:18:36UTC 2023-09-09T03:18:36-10:00 2023-09-09T05:18:36-08:00  43.43788 -124.41798     183   3.9 Hōkūleʻa
  2023-09-09T12:17:33UTC 2023-09-09T02:17:33-10:00 2023-09-09T04:17:33-08:00  43.50341 -124.41390     184   5.1 Hōkūleʻa
  2023-09-09T11:18:39UTC 2023-09-09T01:18:39-10:00 2023-09-09T03:18:39-08:00  43.58599 -124.40592     179   4.6 Hōkūleʻa
  2023-09-09T10:18:35UTC 2023-09-09T00:18:35-10:00 2023-09-09T02:18:35-08:00  43.66192 -124.40858     184   7.8 Hōkūleʻa
  2023-09-09T09:24:36UTC 2023-09-08T23:24:36-10:00 2023-09-09T01:24:36-08:00  43.77838 -124.39639     185   6.3 Hōkūleʻa
  2023-09-09T08:18:27UTC 2023-09-08T22:18:27-10:00 2023-09-09T00:18:27-08:00  43.89273 -124.38137     185   6.8 Hōkūleʻa
  2023-09-09T07:18:33UTC 2023-09-08T21:18:33-10:00 2023-09-08T23:18:33-08:00  44.00517 -124.36890     189   6.8 Hōkūleʻa
  2023-09-09T06:18:43UTC 2023-09-08T20:18:43-10:00 2023-09-08T22:18:43-08:00  44.11748 -124.34534     196   6.8 Hōkūleʻa
  2023-09-09T05:18:27UTC 2023-09-08T19:18:27-10:00 2023-09-08T21:18:27-08:00  44.22766 -124.30279     189   6.6 Hōkūleʻa
  2023-09-09T04:18:50UTC 2023-09-08T18:18:50-10:00 2023-09-08T20:18:50-08:00  44.33555 -124.27865     190   6.3 Hōkūleʻa
  2023-09-09T03:17:41UTC 2023-09-08T17:17:41-10:00 2023-09-08T19:17:41-08:00  44.44097 -124.25338     187   6.8 Hōkūleʻa
  2023-09-09T02:18:32UTC 2023-09-08T16:18:32-10:00 2023-09-08T18:18:32-08:00  44.55242 -124.23514     185   6.8 Hōkūleʻa
  2023-09-09T01:18:53UTC 2023-09-08T15:18:53-10:00 2023-09-08T17:18:53-08:00  44.66511 -124.22147     188   6.7 Hōkūleʻa
  2023-09-09T00:17:32UTC 2023-09-08T14:17:32-10:00 2023-09-08T16:17:32-08:00  44.77853 -124.19947     188   8.3 Hōkūleʻa
  2023-09-08T23:17:42UTC 2023-09-08T13:17:42-10:00 2023-09-08T15:17:42-08:00  44.91503 -124.17347     187   8.8 Hōkūleʻa
  2023-09-08T22:18:43UTC 2023-09-08T12:18:43-10:00 2023-09-08T14:18:43-08:00  45.05773 -124.14806     190   8.4 Hōkūleʻa
  2023-09-08T21:17:35UTC 2023-09-08T11:17:35-10:00 2023-09-08T13:17:35-08:00  45.19846 -124.11405     191   7.6 Hōkūleʻa
  2023-09-08T20:17:52UTC 2023-09-08T10:17:52-10:00 2023-09-08T12:17:52-08:00  45.32166 -124.08126     186   8.1 Hōkūleʻa
  2023-09-08T19:18:40UTC 2023-09-08T09:18:40-10:00 2023-09-08T11:18:40-08:00  45.45467 -124.06066     187   7.6 Hōkūleʻa
  2023-09-08T18:17:31UTC 2023-09-08T08:17:31-10:00 2023-09-08T10:17:31-08:00  45.58362 -124.03876     188   3.3 Hōkūleʻa
  2023-09-08T17:18:39UTC 2023-09-08T07:18:39-10:00 2023-09-08T09:18:39-08:00  45.63770 -124.02850     190   0.7 Hōkūleʻa
  2023-09-08T16:17:35UTC 2023-09-08T06:17:35-10:00 2023-09-08T08:17:35-08:00  45.64975 -124.02539     183   2.7 Hōkūleʻa
  2023-09-08T15:18:25UTC 2023-09-08T05:18:25-10:00 2023-09-08T07:18:25-08:00  45.69377 -124.02226     161   7.6 Hōkūleʻa
  2023-09-08T14:18:52UTC 2023-09-08T04:18:52-10:00 2023-09-08T06:18:52-08:00  45.81235 -124.08154     161   8.0 Hōkūleʻa
  2023-09-08T13:18:34UTC 2023-09-08T03:18:34-10:00 2023-09-08T05:18:34-08:00  45.93953 -124.14394     163   7.8 Hōkūleʻa
  2023-09-08T12:18:34UTC 2023-09-08T02:18:34-10:00 2023-09-08T04:18:34-08:00  46.06441 -124.19711     162   7.7 Hōkūleʻa
  2023-09-08T11:18:38UTC 2023-09-08T01:18:38-10:00 2023-09-08T03:18:38-08:00  46.18679 -124.25438     172   8.4 Hōkūleʻa
  2023-09-08T10:28:06UTC 2023-09-08T00:28:06-10:00 2023-09-08T02:28:06-08:00  46.30295 -124.27814     175   6.8 Hōkūleʻa
  2023-09-08T09:17:50UTC 2023-09-07T23:17:50-10:00 2023-09-08T01:17:50-08:00  46.43496 -124.29595     173   8.2 Hōkūleʻa
  2023-09-08T08:18:26UTC 2023-09-07T22:18:26-10:00 2023-09-08T00:18:26-08:00  46.56904 -124.32075     171   8.1 Hōkūleʻa
  2023-09-08T07:18:34UTC 2023-09-07T21:18:34-10:00 2023-09-07T23:18:34-08:00  46.70242 -124.35191     173   8.9 Hōkūleʻa
  2023-09-08T06:26:55UTC 2023-09-07T20:26:55-10:00 2023-09-07T22:26:55-08:00  46.82879 -124.37508     170   6.9 Hōkūleʻa
  2023-09-08T05:17:38UTC 2023-09-07T19:17:38-10:00 2023-09-07T21:17:38-08:00  46.95952 -124.40929     174   7.7 Hōkūleʻa
  2023-09-08T04:18:34UTC 2023-09-07T18:18:34-10:00 2023-09-07T20:18:34-08:00  47.08549 -124.42890     171   7.9 Hōkūleʻa
  2023-09-08T03:18:47UTC 2023-09-07T17:18:47-10:00 2023-09-07T19:18:47-08:00  47.21419 -124.46008     163   8.1 Hōkūleʻa
  2023-09-08T02:18:40UTC 2023-09-07T16:18:40-10:00 2023-09-07T18:18:40-08:00  47.34415 -124.51724     164   8.9 Hōkūleʻa
  2023-09-08T01:24:12UTC 2023-09-07T15:24:12-10:00 2023-09-07T17:24:12-08:00  47.47404 -124.57084     163   7.5 Hōkūleʻa
  2023-09-08T00:18:47UTC 2023-09-07T14:18:47-10:00 2023-09-07T16:18:47-08:00  47.60547 -124.62854     163   7.9 Hōkūleʻa
  2023-09-07T23:17:31UTC 2023-09-07T13:17:31-10:00 2023-09-07T15:17:31-08:00  47.73369 -124.68530     161   7.9 Hōkūleʻa
  2023-09-07T22:17:32UTC 2023-09-07T12:17:32-10:00 2023-09-07T14:17:32-08:00  47.85796 -124.74875     166   9.1 Hōkūleʻa
  2023-09-07T21:25:52UTC 2023-09-07T11:25:52-10:00 2023-09-07T13:25:52-08:00  47.98411 -124.79520     170   6.9 Hōkūleʻa
  2023-09-07T20:17:40UTC 2023-09-07T10:17:40-10:00 2023-09-07T12:17:40-08:00  48.11173 -124.82979     175   7.3 Hōkūleʻa
  2023-09-07T19:18:33UTC 2023-09-07T09:18:33-10:00 2023-09-07T11:18:33-08:00  48.23075 -124.84578     191   6.9 Hōkūleʻa
  2023-09-07T18:17:50UTC 2023-09-07T08:17:50-10:00 2023-09-07T10:17:50-08:00  48.34531 -124.81097     226   5.8 Hōkūleʻa
  2023-09-07T17:18:31UTC 2023-09-07T07:18:31-10:00 2023-09-07T09:18:31-08:00  48.41106 -124.70727     296   4.9 Hōkūleʻa
  2023-09-07T16:18:42UTC 2023-09-07T06:18:42-10:00 2023-09-07T08:18:42-08:00  48.37517 -124.59683      51   0.8 Hōkūleʻa
  2023-09-07T15:18:38UTC 2023-09-07T05:18:38-10:00 2023-09-07T07:18:38-08:00  48.36689 -124.61230      90   0.0 Hōkūleʻa
  2023-09-07T04:18:27UTC 2023-09-06T18:18:27-10:00 2023-09-06T20:18:27-08:00  48.36702 -124.61240     180   0.0 Hōkūleʻa
  2023-09-07T03:17:49UTC 2023-09-06T17:17:49-10:00 2023-09-06T19:17:49-08:00  48.36703 -124.61240     232   0.8 Hōkūleʻa
  2023-09-07T02:18:31UTC 2023-09-06T16:18:31-10:00 2023-09-06T18:18:31-08:00  48.37502 -124.59698     286   7.8 Hōkūleʻa
  2023-09-07T01:18:40UTC 2023-09-06T15:18:40-10:00 2023-09-06T17:18:40-08:00  48.33893 -124.40909     291   8.3 Hōkūleʻa
  2023-09-07T00:17:43UTC 2023-09-06T14:17:43-10:00 2023-09-06T16:17:43-08:00  48.28786 -124.21361     288   8.3 Hōkūleʻa
  2023-09-06T23:18:30UTC 2023-09-06T13:18:30-10:00 2023-09-06T15:18:30-08:00  48.24711 -124.01983     280   8.0 Hōkūleʻa
  2023-09-06T22:18:40UTC 2023-09-06T12:18:40-10:00 2023-09-06T14:18:40-08:00  48.22512 -123.82469     278   8.1 Hōkūleʻa
  2023-09-06T21:17:52UTC 2023-09-06T11:17:52-10:00 2023-09-06T13:17:52-08:00  48.20649 -123.62151     277   8.5 Hōkūleʻa
  2023-09-06T20:17:38UTC 2023-09-06T10:17:38-10:00 2023-09-06T12:17:38-08:00  48.18828 -123.40985     269   8.4 Hōkūleʻa
  2023-09-06T19:18:32UTC 2023-09-06T09:18:32-10:00 2023-09-06T11:18:32-08:00  48.19002 -123.20416     273   7.3 Hōkūleʻa
  2023-09-06T18:18:48UTC 2023-09-06T08:18:48-10:00 2023-09-06T10:18:48-08:00  48.18350 -123.02261     281   7.7 Hōkūleʻa
  2023-09-06T17:17:39UTC 2023-09-06T07:17:39-10:00 2023-09-06T09:17:39-08:00  48.15803 -122.83112     309   4.2 Hōkūleʻa
  2023-09-06T16:18:37UTC 2023-09-06T06:18:37-10:00 2023-09-06T08:18:37-08:00  48.11492 -122.75117       0   0.0 Hōkūleʻa
  2023-09-06T00:17:51UTC 2023-09-05T14:17:51-10:00 2023-09-05T16:17:51-08:00  48.11492 -122.75117     205   0.0 Hōkūleʻa
  2023-09-05T23:18:32UTC 2023-09-05T13:18:32-10:00 2023-09-05T15:18:32-08:00  48.11529 -122.75091      25   0.1 Hōkūleʻa
  2023-09-05T22:17:32UTC 2023-09-05T12:17:32-10:00 2023-09-05T14:17:32-08:00  48.11425 -122.75164     314   6.3 Hōkūleʻa
  2023-09-05T21:17:44UTC 2023-09-05T11:17:44-10:00 2023-09-05T13:17:44-08:00  48.04187 -122.64025     327   9.2 Hōkūleʻa
  2023-09-05T20:18:32UTC 2023-09-05T10:18:32-10:00 2023-09-05T12:18:32-08:00  47.91624 -122.51700     342   8.2 Hōkūleʻa
  2023-09-05T19:17:35UTC 2023-09-05T09:17:35-10:00 2023-09-05T11:17:35-08:00  47.78408 -122.45464     358   8.1 Hōkūleʻa
  2023-09-05T18:17:43UTC 2023-09-05T08:17:43-10:00 2023-09-05T10:17:43-08:00  47.64894 -122.44851     352   7.9 Hōkūleʻa
  2023-09-05T17:18:38UTC 2023-09-05T07:18:38-10:00 2023-09-05T09:18:38-08:00  47.52105 -122.42168     342   7.3 Hōkūleʻa
  2023-09-05T16:18:35UTC 2023-09-05T06:18:35-10:00 2023-09-05T08:18:35-08:00  47.40515 -122.36765      31   7.1 Hōkūleʻa
  2023-09-05T15:18:49UTC 2023-09-05T05:18:49-10:00 2023-09-05T07:18:49-08:00  47.30436 -122.45524     345   2.8 Hōkūleʻa
  2023-09-05T14:18:30UTC 2023-09-05T04:18:30-10:00 2023-09-05T06:18:30-08:00  47.25898 -122.43707     297   0.0 Hōkūleʻa
  2023-08-30T21:18:00UTC 2023-08-30T11:18:00-10:00 2023-08-30T13:18:00-08:00  47.25899 -122.43700       0   0.0 Hōkūleʻa
  2023-08-30T20:18:28UTC 2023-08-30T10:18:28-10:00 2023-08-30T12:18:28-08:00  47.25897 -122.43700     156   0.1 Hōkūleʻa
  2023-08-30T19:18:12UTC 2023-08-30T09:18:12-10:00 2023-08-30T11:18:12-08:00  47.26076 -122.43816     181   1.9 Hōkūleʻa
  2023-08-30T18:18:49UTC 2023-08-30T08:18:49-10:00 2023-08-30T10:18:49-08:00  47.29140 -122.43771     207   6.6 Hōkūleʻa
  2023-08-30T17:17:51UTC 2023-08-30T07:17:51-10:00 2023-08-30T09:17:51-08:00  47.39065 -122.36364     164   7.5 Hōkūleʻa
  2023-08-30T16:18:33UTC 2023-08-30T06:18:33-10:00 2023-08-30T08:18:33-08:00  47.50923 -122.41334     196   6.2 Hōkūleʻa
  2023-08-30T15:18:41UTC 2023-08-30T05:18:41-10:00 2023-08-30T07:18:41-08:00  47.60862 -122.37252     265   1.0 Hōkūleʻa
  2023-08-30T14:18:45UTC 2023-08-30T04:18:45-10:00 2023-08-30T06:18:45-08:00  47.61019 -122.34708       6   0.0 Hōkūleʻa
  2023-08-27T01:18:35UTC 2023-08-26T15:18:35-10:00 2023-08-26T17:18:35-08:00  47.61009 -122.34714     291   0.0 Hōkūleʻa
  2023-08-27T00:17:49UTC 2023-08-26T14:17:49-10:00 2023-08-26T16:17:49-08:00  47.61008 -122.34710     321   0.1 Hōkūleʻa
  2023-08-26T23:18:29UTC 2023-08-26T13:18:29-10:00 2023-08-26T15:18:29-08:00  47.60832 -122.34497       0   0.0 Hōkūleʻa
  2023-08-26T18:27:45UTC 2023-08-26T08:27:45-10:00 2023-08-26T10:27:45-08:00  47.60832 -122.34499       0   0.0 Hōkūleʻa
  2023-08-26T17:17:50UTC 2023-08-26T07:17:50-10:00 2023-08-26T09:17:50-08:00  47.60832 -122.34499     100   0.6 Hōkūleʻa
  2023-08-26T16:17:32UTC 2023-08-26T06:17:32-10:00 2023-08-26T08:17:32-08:00  47.61004 -122.35941     128   5.3 Hōkūleʻa
  2023-08-26T15:18:32UTC 2023-08-26T05:18:32-10:00 2023-08-26T07:18:32-08:00  47.66403 -122.46117     139   5.2 Hōkūleʻa
  2023-08-26T14:18:53UTC 2023-08-26T04:18:53-10:00 2023-08-26T06:18:53-08:00  47.72844 -122.54440      99   0.2 Hōkūleʻa
  2023-08-26T13:18:46UTC 2023-08-26T03:18:46-10:00 2023-08-26T05:18:46-08:00  47.72901 -122.54946       0   0.0 Hōkūleʻa
  2023-08-25T01:18:46UTC 2023-08-24T15:18:46-10:00 2023-08-24T17:18:46-08:00  47.72901 -122.54946     190   0.0 Hōkūleʻa
  2023-08-25T00:28:03UTC 2023-08-24T14:28:03-10:00 2023-08-24T16:28:03-08:00  47.72940 -122.54936       8   0.1 Hōkūleʻa
  2023-08-24T23:17:36UTC 2023-08-24T13:17:36-10:00 2023-08-24T15:17:36-08:00  47.72823 -122.54962     270   1.6 Hōkūleʻa
  2023-08-24T22:18:51UTC 2023-08-24T12:18:51-10:00 2023-08-24T14:18:51-08:00  47.72843 -122.51041     214   3.1 Hōkūleʻa
  2023-08-24T21:17:38UTC 2023-08-24T11:17:38-10:00 2023-08-24T13:17:38-08:00  47.77258 -122.46685     170   6.0 Hōkūleʻa
  2023-08-24T20:17:29UTC 2023-08-24T10:17:29-10:00 2023-08-24T12:17:29-08:00  47.87112 -122.49316     141   8.0 Hōkūleʻa
  2023-08-24T19:17:33UTC 2023-08-24T09:17:33-10:00 2023-08-24T11:17:33-08:00  47.97424 -122.61888     163   7.5 Hōkūleʻa
  2023-08-24T18:18:17UTC 2023-08-24T08:18:17-10:00 2023-08-24T10:18:17-08:00  48.09260 -122.67400     116   7.8 Hōkūleʻa
  2023-08-24T17:17:33UTC 2023-08-24T07:17:33-10:00 2023-08-24T09:17:33-08:00  48.15000 -122.84931     119   8.4 Hōkūleʻa
  2023-08-24T16:18:32UTC 2023-08-24T06:18:32-10:00 2023-08-24T08:18:32-08:00  48.21676 -123.02883     138   9.2 Hōkūleʻa
  2023-08-24T15:29:18UTC 2023-08-24T05:29:18-10:00 2023-08-24T07:29:18-08:00  48.30971 -123.15500     124   6.2 Hōkūleʻa
  2023-08-24T14:18:52UTC 2023-08-24T04:18:52-10:00 2023-08-24T06:18:52-08:00  48.37764 -123.30411     135   3.7 Hōkūleʻa
  2023-08-24T13:18:35UTC 2023-08-24T03:18:35-10:00 2023-08-24T05:18:35-08:00  48.42148 -123.36928     336   0.0 Hōkūleʻa
  2023-08-22T21:18:32UTC 2023-08-22T11:18:32-10:00 2023-08-22T13:18:32-08:00  48.42138 -123.36921     127   0.0 Hōkūleʻa
  2023-08-22T20:17:31UTC 2023-08-22T10:17:31-10:00 2023-08-22T12:17:31-08:00  48.42139 -123.36923     113   0.4 Hōkūleʻa
  2023-08-22T19:17:50UTC 2023-08-22T09:17:50-10:00 2023-08-22T11:17:50-08:00  48.42415 -123.37900     266   4.1 Hōkūleʻa
  2023-08-22T18:18:52UTC 2023-08-22T08:18:52-10:00 2023-08-22T10:18:52-08:00  48.42850 -123.27890     170   7.6 Hōkūleʻa
  2023-08-22T17:17:39UTC 2023-08-22T07:17:39-10:00 2023-08-22T09:17:39-08:00  48.55585 -123.31248     167   7.6 Hōkūleʻa
  2023-08-22T16:18:35UTC 2023-08-22T06:18:35-10:00 2023-08-22T08:18:35-08:00  48.67674 -123.35370     175   6.1 Hōkūleʻa
  2023-08-22T15:17:45UTC 2023-08-22T05:17:45-10:00 2023-08-22T07:17:45-08:00  48.77970 -123.36818     131   6.9 Hōkūleʻa
  2023-08-22T14:18:22UTC 2023-08-22T04:18:22-10:00 2023-08-22T06:18:22-08:00  48.85426 -123.49740     284   0.0 Hōkūleʻa
  2023-08-13T02:18:36UTC 2023-08-12T16:18:36-10:00 2023-08-12T18:18:36-08:00  48.85429 -123.49744      35   0.0 Hōkūleʻa
  2023-08-13T01:26:27UTC 2023-08-12T15:26:27-10:00 2023-08-12T17:26:27-08:00  48.85427 -123.49747     301   1.1 Hōkūleʻa
  2023-08-13T00:18:32UTC 2023-08-12T14:18:32-10:00 2023-08-12T16:18:32-08:00  48.84323 -123.47002     169   4.1 Hōkūleʻa
  2023-08-12T23:17:39UTC 2023-08-12T13:17:39-10:00 2023-08-12T15:17:39-08:00  48.91197 -123.49010     145   7.2 Hōkūleʻa
  2023-08-12T22:18:42UTC 2023-08-12T12:18:42-10:00 2023-08-12T14:18:42-08:00  49.00849 -123.59205     197   3.4 Hōkūleʻa
  2023-08-12T21:25:31UTC 2023-08-12T11:25:31-10:00 2023-08-12T13:25:31-08:00  49.05628 -123.56918     214   3.1 Hōkūleʻa
  2023-08-12T20:17:52UTC 2023-08-12T10:17:52-10:00 2023-08-12T12:17:52-08:00  49.10482 -123.51948     194   2.0 Hōkūleʻa
  2023-08-12T19:17:58UTC 2023-08-12T09:17:58-10:00 2023-08-12T11:17:58-08:00  49.13746 -123.50678      37   2.4 Hōkūleʻa
  2023-08-12T18:18:41UTC 2023-08-12T08:18:41-10:00 2023-08-12T10:18:41-08:00  49.10582 -123.54373     232   3.6 Hōkūleʻa
  2023-08-12T17:17:35UTC 2023-08-12T07:17:35-10:00 2023-08-12T09:17:35-08:00  49.14354 -123.47135     224   3.5 Hōkūleʻa
  2023-08-12T16:24:11UTC 2023-08-12T06:24:11-10:00 2023-08-12T08:24:11-08:00  49.18126 -123.41614     229   3.3 Hōkūleʻa
  2023-08-12T15:18:32UTC 2023-08-12T05:18:32-10:00 2023-08-12T07:18:32-08:00  49.22141 -123.34602     213   3.3 Hōkūleʻa
  2023-08-12T14:17:33UTC 2023-08-12T04:17:33-10:00 2023-08-12T06:17:33-08:00  49.26857 -123.29937     248   3.4 Hōkūleʻa
  2023-08-12T13:18:41UTC 2023-08-12T03:18:41-10:00 2023-08-12T05:18:41-08:00  49.28963 -123.22036     287   3.5 Hōkūleʻa
  2023-08-12T12:18:39UTC 2023-08-12T02:18:39-10:00 2023-08-12T04:18:39-08:00  49.27303 -123.13457     319   0.0 Hōkūleʻa
  2023-08-10T23:57:46UTC 2023-08-10T13:57:46-10:00 2023-08-10T12:57:46-11:00  21.31311 -157.88862     348   0.0 Hikianalia
  2023-08-10T22:57:18UTC 2023-08-10T12:57:18-10:00 2023-08-10T11:57:18-11:00  21.31283 -157.88856     155   0.5 Hikianalia
  2023-08-10T21:58:10UTC 2023-08-10T11:58:10-10:00 2023-08-10T10:58:10-11:00  21.32021 -157.89222     335   0.5 Hikianalia
  2023-08-10T20:57:47UTC 2023-08-10T10:57:47-10:00 2023-08-10T09:57:47-11:00  21.31312 -157.88866      40   0.0 Hikianalia
  2023-08-09T01:17:34UTC 2023-08-08T15:17:34-10:00 2023-08-08T17:17:34-08:00  49.27302 -123.13453     140   0.0 Hōkūleʻa
  2023-08-09T00:18:42UTC 2023-08-08T14:18:42-10:00 2023-08-08T16:18:42-08:00  49.27305 -123.13457     125   0.6 Hōkūleʻa
  2023-08-08T23:18:29UTC 2023-08-08T13:18:29-10:00 2023-08-08T15:18:29-08:00  49.27875 -123.14704       0   0.0 Hōkūleʻa
  2023-08-05T19:18:49UTC 2023-08-05T09:18:49-10:00 2023-08-05T11:18:49-08:00  49.27873 -123.14704     127   0.0 Hōkūleʻa
  2023-08-05T18:17:32UTC 2023-08-05T08:17:32-10:00 2023-08-05T10:17:32-08:00  49.27875 -123.14706     135   0.6 Hōkūleʻa
  2023-08-05T17:18:37UTC 2023-08-05T07:18:37-10:00 2023-08-05T09:18:37-08:00  49.28608 -123.15809     124   6.4 Hōkūleʻa
  2023-08-05T16:17:53UTC 2023-08-05T06:17:53-10:00 2023-08-05T08:17:53-08:00  49.34680 -123.29525     145   2.4 Hōkūleʻa
  2023-08-05T15:18:33UTC 2023-08-05T05:18:33-10:00 2023-08-05T07:18:33-08:00  49.37875 -123.33005     129   0.0 Hōkūleʻa
  2023-08-05T05:18:36UTC 2023-08-04T19:18:36-10:00 2023-08-04T21:18:36-08:00  49.37874 -123.33003     127   0.0 Hōkūleʻa
  2023-08-05T04:18:45UTC 2023-08-04T18:18:45-10:00 2023-08-04T20:18:45-08:00  49.37875 -123.33005     253   0.4 Hōkūleʻa
  2023-08-05T03:18:24UTC 2023-08-04T17:18:24-10:00 2023-08-04T19:18:24-08:00  49.38062 -123.32061      64   8.7 Hōkūleʻa
  2023-08-05T02:36:38UTC 2023-08-04T16:36:38-10:00 2023-08-04T18:36:38-08:00  49.33629 -123.45871     109   6.6 Hōkūleʻa
  2023-08-05T01:26:40UTC 2023-08-04T15:26:40-10:00 2023-08-04T17:26:40-08:00  49.37773 -123.64471     106   6.5 Hōkūleʻa
  2023-08-05T00:18:43UTC 2023-08-04T14:18:43-10:00 2023-08-04T16:18:43-08:00  49.41258 -123.82431     111   7.4 Hōkūleʻa
  2023-08-04T23:17:50UTC 2023-08-04T13:17:50-10:00 2023-08-04T15:17:50-08:00  49.45701 -124.00397     111   7.8 Hōkūleʻa
  2023-08-04T22:17:40UTC 2023-08-04T12:17:40-10:00 2023-08-04T14:17:40-08:00  49.50357 -124.19192     122   7.7 Hōkūleʻa
  2023-08-04T21:18:43UTC 2023-08-04T11:18:43-10:00 2023-08-04T13:18:43-08:00  49.57044 -124.35719     124   7.9 Hōkūleʻa
  2023-08-04T20:26:42UTC 2023-08-04T10:26:42-10:00 2023-08-04T12:26:42-08:00  49.63494 -124.50233     127   8.0 Hōkūleʻa
  2023-08-04T19:28:59UTC 2023-08-04T09:28:59-10:00 2023-08-04T11:28:59-08:00  49.71150 -124.66015     129   6.7 Hōkūleʻa
  2023-08-04T18:17:37UTC 2023-08-04T08:17:37-10:00 2023-08-04T10:17:37-08:00  49.79512 -124.81898     127   7.8 Hōkūleʻa
  2023-08-04T17:18:53UTC 2023-08-04T07:18:53-10:00 2023-08-04T09:18:53-08:00  49.87271 -124.97613     129   7.4 Hōkūleʻa
  2023-08-04T16:17:35UTC 2023-08-04T06:17:35-10:00 2023-08-04T08:17:35-08:00  49.95152 -125.12739     139   6.0 Hōkūleʻa
  2023-08-04T15:18:32UTC 2023-08-04T05:18:32-10:00 2023-08-04T07:18:32-08:00  50.02635 -125.22650     127   0.9 Hōkūleʻa
  2023-08-04T14:18:47UTC 2023-08-04T04:18:47-10:00 2023-08-04T06:18:47-08:00  50.03525 -125.24491     180   0.0 Hōkūleʻa
  2023-08-03T05:58:24UTC 2023-08-02T19:58:24-10:00 2023-08-02T18:58:24-11:00  21.31310 -157.88873     119   0.0 Hikianalia
  2023-08-03T04:57:11UTC 2023-08-02T18:57:11-10:00 2023-08-02T17:57:11-11:00  21.31312 -157.88877     314   3.1 Hikianalia
  2023-08-03T04:18:27UTC 2023-08-02T18:18:27-10:00 2023-08-02T20:18:27-08:00  50.03525 -125.24491       0   0.0 Hōkūleʻa
  2023-08-03T03:58:41UTC 2023-08-02T17:58:41-10:00 2023-08-02T16:58:41-11:00  21.27765 -157.85021     135   3.0 Hikianalia
  2023-08-03T03:18:57UTC 2023-08-02T17:18:57-10:00 2023-08-02T19:18:57-08:00  50.03525 -125.24491     163   1.3 Hōkūleʻa
  2023-08-03T02:57:19UTC 2023-08-02T16:57:19-10:00 2023-08-02T15:57:19-11:00  21.31311 -157.88864      62   0.0 Hikianalia
  2023-08-03T02:18:35UTC 2023-08-02T16:18:35-10:00 2023-08-02T18:18:35-08:00  50.05580 -125.25455     151   8.1 Hōkūleʻa
  2023-08-03T01:18:41UTC 2023-08-02T15:18:41-10:00 2023-08-02T17:18:41-08:00  50.17302 -125.35555     241   0.5 Hōkūleʻa
  2023-08-03T00:17:29UTC 2023-08-02T14:17:29-10:00 2023-08-02T16:17:29-08:00  50.17720 -125.34385       0   0.0 Hōkūleʻa
  2023-08-02T23:18:39UTC 2023-08-02T13:18:39-10:00 2023-08-02T15:18:39-08:00  50.17719 -125.34385     155   4.2 Hōkūleʻa
  2023-08-02T22:27:08UTC 2023-08-02T12:27:08-10:00 2023-08-02T14:27:08-08:00  50.23150 -125.38329     152   8.6 Hōkūleʻa
  2023-08-02T21:35:14UTC 2023-08-02T11:35:14-10:00 2023-08-02T13:35:14-08:00  50.34061 -125.47414     102   6.1 Hōkūleʻa
  2023-08-02T20:17:46UTC 2023-08-02T10:17:46-10:00 2023-08-02T12:17:46-08:00  50.36725 -125.67405     100   7.6 Hōkūleʻa
  2023-08-02T19:18:33UTC 2023-08-02T09:18:33-10:00 2023-08-02T11:18:33-08:00  50.38905 -125.86551     113   6.4 Hōkūleʻa
  2023-08-02T18:17:46UTC 2023-08-02T08:17:46-10:00 2023-08-02T10:17:46-08:00  50.43204 -126.02082     109   6.8 Hōkūleʻa
  2023-08-02T17:18:39UTC 2023-08-02T07:18:39-10:00 2023-08-02T09:18:39-08:00  50.46871 -126.18558      99   6.4 Hōkūleʻa
  2023-08-02T16:18:45UTC 2023-08-02T06:18:45-10:00 2023-08-02T08:18:45-08:00  50.48468 -126.35131      97   6.0 Hōkūleʻa
  2023-08-02T15:17:51UTC 2023-08-02T05:17:51-10:00 2023-08-02T07:17:51-08:00  50.49662 -126.51044     102   6.5 Hōkūleʻa
  2023-08-02T14:18:30UTC 2023-08-02T04:18:30-10:00 2023-08-02T06:18:30-08:00  50.51862 -126.67513     113   6.3 Hōkūleʻa
  2023-08-02T13:18:33UTC 2023-08-02T03:18:33-10:00 2023-08-02T05:18:33-08:00  50.55973 -126.82602     110   4.2 Hōkūleʻa
  2023-08-02T12:18:49UTC 2023-08-02T02:18:49-10:00 2023-08-02T04:18:49-08:00  50.58384 -126.92947     285   0.0 Hōkūleʻa
  2023-08-01T05:58:20UTC 2023-07-31T19:58:20-10:00 2023-07-31T18:58:20-11:00  21.31311 -157.88866     137   0.0 Hikianalia
  2023-08-01T04:58:17UTC 2023-07-31T18:58:17-10:00 2023-07-31T17:58:17-11:00  21.31315 -157.88871      26   1.9 Hikianalia
  2023-08-01T03:57:51UTC 2023-07-31T17:57:51-10:00 2023-07-31T16:57:51-11:00  21.28459 -157.90358     206   1.9 Hikianalia
  2023-08-01T02:58:12UTC 2023-07-31T16:58:12-10:00 2023-07-31T15:58:12-11:00  21.31305 -157.88862     124   0.0 Hikianalia
  2023-07-31T03:18:31UTC 2023-07-30T17:18:31-10:00 2023-07-30T19:18:31-08:00  50.58383 -126.92943     231   0.0 Hōkūleʻa
  2023-07-31T02:18:53UTC 2023-07-30T16:18:53-10:00 2023-07-30T18:18:53-08:00  50.58384 -126.92941     138   0.8 Hōkūleʻa
  2023-07-31T01:27:55UTC 2023-07-30T15:27:55-10:00 2023-07-30T17:27:55-08:00  50.59233 -126.94159     350   0.3 Hōkūleʻa
  2023-07-31T00:18:01UTC 2023-07-30T14:18:01-10:00 2023-07-30T16:18:01-08:00  50.58755 -126.94028      94   2.3 Hōkūleʻa
  2023-07-30T23:18:30UTC 2023-07-30T13:18:30-10:00 2023-07-30T15:18:30-08:00  50.59043 -126.99899     109   5.8 Hōkūleʻa
  2023-07-30T22:18:50UTC 2023-07-30T12:18:50-10:00 2023-07-30T14:18:50-08:00  50.62261 -127.14199     126   7.5 Hōkūleʻa
  2023-07-30T21:18:44UTC 2023-07-30T11:18:44-10:00 2023-07-30T13:18:44-08:00  50.69648 -127.29991     123   6.5 Hōkūleʻa
  2023-07-30T20:17:29UTC 2023-07-30T10:17:29-10:00 2023-07-30T12:17:29-08:00  50.75676 -127.44681      37   2.6 Hōkūleʻa
  2023-07-30T19:18:38UTC 2023-07-30T09:18:38-10:00 2023-07-30T11:18:38-08:00  50.72279 -127.48707       0   0.0 Hōkūleʻa
  2023-07-30T05:58:38UTC 2023-07-29T19:58:38-10:00 2023-07-29T18:58:38-11:00  21.31288 -157.88845     134   0.0 Hikianalia
  2023-07-30T04:58:18UTC 2023-07-29T18:58:18-10:00 2023-07-29T17:58:18-11:00  21.31317 -157.88877     320   2.4 Hikianalia
  2023-07-30T03:57:22UTC 2023-07-29T17:57:22-10:00 2023-07-29T16:57:22-11:00  21.28204 -157.86047     323   5.7 Hikianalia
  2023-07-30T02:58:41UTC 2023-07-29T16:58:41-10:00 2023-07-29T15:58:41-11:00  21.20697 -157.80077     145   4.1 Hikianalia
  2023-07-30T01:57:19UTC 2023-07-29T15:57:19-10:00 2023-07-29T14:57:19-11:00  21.26418 -157.84313     252   0.7 Hikianalia
  2023-07-30T00:57:16UTC 2023-07-29T14:57:16-10:00 2023-07-29T13:57:16-11:00  21.26803 -157.83075      90   2.5 Hikianalia
  2023-07-29T23:57:45UTC 2023-07-29T13:57:45-10:00 2023-07-29T12:57:45-11:00  21.26831 -157.87529     164   2.8 Hikianalia
  2023-07-29T22:58:18UTC 2023-07-29T12:58:18-10:00 2023-07-29T11:58:18-11:00  21.31307 -157.88873      33   0.0 Hikianalia
  2023-07-29T01:19:01UTC 2023-07-28T15:19:01-10:00 2023-07-28T17:19:01-08:00  50.72279 -127.48707     151   0.0 Hōkūleʻa
  2023-07-29T00:17:34UTC 2023-07-28T14:17:34-10:00 2023-07-28T16:17:34-08:00  50.72321 -127.48743     310   0.1 Hōkūleʻa
  2023-07-28T23:18:46UTC 2023-07-28T13:18:46-10:00 2023-07-28T15:18:46-08:00  50.72226 -127.48565     184   2.8 Hōkūleʻa
  2023-07-28T22:17:51UTC 2023-07-28T12:17:51-10:00 2023-07-28T14:17:51-08:00  50.76866 -127.48078     134   6.6 Hōkūleʻa
  2023-07-28T21:18:32UTC 2023-07-28T11:18:32-10:00 2023-07-28T12:18:32-09:00  50.84360 -127.60459     149   8.7 Hōkūleʻa
  2023-07-28T20:27:01UTC 2023-07-28T10:27:01-10:00 2023-07-28T11:27:01-09:00  50.94951 -127.70557     154   6.7 Hōkūleʻa
  2023-07-28T19:17:53UTC 2023-07-28T09:17:53-10:00 2023-07-28T10:17:53-09:00  51.06528 -127.79370     163   7.6 Hōkūleʻa
  2023-07-28T18:18:41UTC 2023-07-28T08:18:41-10:00 2023-07-28T09:18:41-09:00  51.18423 -127.85078     167   8.9 Hōkūleʻa
  2023-07-28T17:24:11UTC 2023-07-28T07:24:11-10:00 2023-07-28T08:24:11-09:00  51.31504 -127.89826     188   7.6 Hōkūleʻa
  2023-07-28T16:18:49UTC 2023-07-28T06:18:49-10:00 2023-07-28T07:18:49-09:00  51.45153 -127.86743     172   7.8 Hōkūleʻa
  2023-07-28T15:17:40UTC 2023-07-28T05:17:40-10:00 2023-07-28T06:17:40-09:00  51.58251 -127.89689     131   6.4 Hōkūleʻa
  2023-07-28T14:18:29UTC 2023-07-28T04:18:29-10:00 2023-07-28T05:18:29-09:00  51.65148 -128.02587      93   3.9 Hōkūleʻa
  2023-07-28T13:18:34UTC 2023-07-28T03:18:34-10:00 2023-07-28T04:18:34-09:00  51.65453 -128.12876     270   0.0 Hōkūleʻa
  2023-07-28T06:58:17UTC 2023-07-27T20:58:17-10:00 2023-07-27T19:58:17-11:00  21.31308 -157.88873       0   0.0 Hikianalia
  2023-07-28T06:05:27UTC 2023-07-27T20:05:27-10:00 2023-07-27T19:05:27-11:00  21.31305 -157.88873      38   0.6 Hikianalia
  2023-07-28T04:58:20UTC 2023-07-27T18:58:20-10:00 2023-07-27T17:58:20-11:00  21.30411 -157.89607     344   2.3 Hikianalia
  2023-07-28T03:58:17UTC 2023-07-27T17:58:17-10:00 2023-07-27T16:58:17-11:00  21.26717 -157.88495     176   2.7 Hikianalia
  2023-07-28T02:57:47UTC 2023-07-27T16:57:47-10:00 2023-07-27T15:57:47-11:00  21.31274 -157.88858       0   0.0 Hikianalia
  2023-07-27T04:18:33UTC 2023-07-26T18:18:33-10:00 2023-07-26T19:18:33-09:00  51.65454 -128.12874     270   0.0 Hōkūleʻa
  2023-07-27T03:18:35UTC 2023-07-26T17:18:35-10:00 2023-07-26T18:18:35-09:00  51.65454 -128.12872     281   0.1 Hōkūleʻa
  2023-07-27T02:17:43UTC 2023-07-26T16:17:43-10:00 2023-07-26T17:17:43-09:00  51.65405 -128.12473     270   6.3 Hōkūleʻa
  2023-07-27T01:17:39UTC 2023-07-26T15:17:39-10:00 2023-07-26T16:17:3